M I D A S
Marine Information and Data Acquisition System
Tripno 1010 of the Zeeleeuw from 2005-01-17 08:11:22 to 2005-01-17 12:48:56
Back to CruiseResearch ActivitiesStationsMapUnderway DataData graphs

EquipmentUnitsComment
TimeDGPSUTC
LatitudeDGPSDM.mWGS84
LongitudeDGPSDM.mWGS84
TemperatureSBE03/SBE38deg celciusITS90
ConductivitySBE21S/mITS90
SalinitySBE21 Practical Salinity Units
ChlorophylAChelsea fluorimeterg/lCalibrated in Aceton
Missing or incorrect values are displayed as -999
Sea surface data collected by the RV Zeeleeuw from 2005-01-17 08:11:22 to 2005-01-17 12:48:56
                                                                                    Next 1000 lines
Time Latitude Longitude Temperature Conductivity Salinity ChlorophylA
2005-01-17 08:11:30 51°13.596 2°56.1 7.138358 3.231237 31.424463 0.97164
2005-01-17 08:11:36 51°13.596 2°56.1 7.14354 3.229552 31.414007 0.870512
2005-01-17 08:11:41 51°13.596 2°56.101 7.14354 3.229552 31.414007 0.870512
2005-01-17 08:11:45 51°13.596 2°56.101 7.135609 3.220074 31.321901 1.106477
2005-01-17 08:11:51 51°13.596 2°56.101 7.10165 3.214915 31.272457 0.93793
2005-01-17 08:11:56 51°13.596 2°56.102 7.078525 3.227025 31.392933 0.836802
2005-01-17 08:12:01 51°13.596 2°56.102 7.070267 3.217863 31.275863 0.97164
2005-01-17 08:12:06 51°13.596 2°56.102 7.050255 3.221338 31.310202 1.072768
2005-01-17 08:12:11 51°13.596 2°56.102 7.050255 3.221338 31.310202 1.072768
2005-01-17 08:12:16 51°13.596 2°56.102 7.066191 3.219864 31.306595 0.904221
2005-01-17 08:12:20 51°13.596 2°56.102 7.064974 3.20112 31.123157 1.039059
2005-01-17 08:12:25 51°13.596 2°56.102 7.072967 3.189326 31.006881 1.005349
2005-01-17 08:12:30 51°13.596 2°56.102 7.063756 3.237029 31.531638 0.97164
2005-01-17 08:12:36 51°13.595 2°56.102 7.063756 3.237029 31.531638 0.97164
2005-01-17 08:12:40 51°13.595 2°56.102 7.065715 3.219127 31.349327 0.904221
2005-01-17 08:12:44 51°13.595 2°56.102 7.072544 3.231237 31.477646 1.005349
2005-01-17 08:12:50 51°13.595 2°56.102 7.059468 3.200278 31.141559 0.93793
2005-01-17 08:12:56 51°13.594 2°56.102 7.05375 3.227973 31.443969 1.005349
2005-01-17 08:13:00 51°13.594 2°56.102 7.034898 3.236503 31.538332 0.870512
2005-01-17 08:13:06 51°13.594 2°56.102 7.034898 3.236503 31.538332 0.870512
2005-01-17 08:13:11 51°13.594 2°56.102 7.033627 3.236608 31.538695 0.97164
2005-01-17 08:13:16 51°13.594 2°56.102 7.039188 3.231764 31.487189 0.904221
2005-01-17 08:13:20 51°13.594 2°56.101 7.040194 3.229868 31.472912 0.904221
2005-01-17 08:13:26 51°13.595 2°56.099 7.038552 3.236292 31.55309 1.039059
2005-01-17 08:13:31 51°13.595 2°56.096 7.034262 3.234818 31.544912 1.039059
2005-01-17 08:13:36 51°13.596 2°56.093 7.034262 3.234818 31.544912 1.039059
2005-01-17 08:13:41 51°13.597 2°56.089 7.032938 3.235977 31.557425 0.97164
2005-01-17 08:13:46 51°13.598 2°56.085 7.019378 3.235345 31.552924 1.005349
2005-01-17 08:13:52 51°13.6 2°56.079 7.008782 3.234713 31.545324 0.836802
2005-01-17 08:13:57 51°13.602 2°56.074 7.012226 3.23208 31.51921 1.039059
2005-01-17 08:14:02 51°13.604 2°56.068 7.039611 3.229763 31.498056 1.072768
2005-01-17 08:14:06 51°13.605 2°56.063 7.039611 3.229763 31.498056 1.072768
2005-01-17 08:14:12 51°13.608 2°56.055 7.037864 3.224182 31.443957 1.005349
2005-01-17 08:14:17 51°13.61 2°56.048 7.033627 3.218917 31.394037 1.039059
2005-01-17 08:14:22 51°13.612 2°56.041 7.026688 3.20607 31.259165 1.612118
2005-01-17 08:14:26 51°13.614 2°56.035 7.01763 3.202384 31.210179 1.746956
2005-01-17 08:14:32 51°13.616 2°56.026 7.002848 3.20944 31.279404 1.915503
2005-01-17 08:14:37 51°13.618 2°56.019 6.988645 3.212704 31.316941 2.050341
2005-01-17 08:14:42 51°13.619 2°56.011 6.988645 3.212704 31.316941 2.050341
2005-01-17 08:14:46 51°13.621 2°56.005 6.983239 3.211756 31.30825 2.016631
2005-01-17 08:14:52 51°13.624 2°55.995 6.97428 3.212704 31.326174 2.08405
2005-01-17 08:14:56 51°13.626 2°55.989 6.969032 3.211335 31.319859 2.016631
2005-01-17 08:15:02 51°13.629 2°55.978 6.96145 3.205965 31.273399 2.050341
2005-01-17 08:15:06 51°13.631 2°55.971 6.960655 3.203964 31.261014 1.881794
2005-01-17 08:15:12 51°13.635 2°55.96 6.960655 3.203964 31.261014 1.881794
2005-01-17 08:15:17 51°13.637 2°55.951 6.955034 3.201121 31.239521 1.713247
2005-01-17 08:15:22 51°13.64 2°55.941 6.951747 3.203438 31.269169 1.713247
2005-01-17 08:15:26 51°13.642 2°55.934 6.946284 3.204807 31.291664 1.342443
2005-01-17 08:15:32 51°13.645 2°55.922 6.944163 3.206808 31.31792 1.5447
2005-01-17 08:15:37 51°13.648 2°55.912 6.937215 3.210493 31.361637 1.376153
2005-01-17 08:15:42 51°13.651 2°55.902 6.937215 3.210493 31.361637 1.376153
2005-01-17 08:15:46 51°13.653 2°55.894 6.937056 3.213863 31.402728 1.51099
2005-01-17 08:15:52 51°13.657 2°55.882 6.934669 3.214916 31.41799 1.173896
2005-01-17 08:15:57 51°13.66 2°55.872 6.930001 3.216391 31.44014 1.140187
2005-01-17 08:16:02 51°13.663 2°55.861 6.929841 3.216601 31.447068 1.072768
2005-01-17 08:16:06 51°13.666 2°55.853 6.935995 3.219866 31.483188 0.97164
2005-01-17 08:16:12 51°13.67 2°55.84 6.935995 3.219866 31.483188 0.97164
2005-01-17 08:16:17 51°13.673 2°55.83 6.930266 3.220182 31.488937 0.97164
2005-01-17 08:16:21 51°13.675 2°55.822 6.923369 3.21955 31.485198 0.870512
2005-01-17 08:16:26 51°13.678 2°55.812 6.917003 3.218286 31.474615 0.97164
2005-01-17 08:16:32 51°13.681 2°55.8 6.91557 3.221445 31.505727 0.93793
2005-01-17 08:16:36 51°13.683 2°55.793 6.912439 3.218181 31.472699 0.803093
2005-01-17 08:16:42 51°13.686 2°55.782 6.912439 3.218181 31.472699 0.803093
2005-01-17 08:16:46 51°13.688 2°55.775 6.901189 3.22471 31.545752 0.803093
2005-01-17 08:16:52 51°13.69 2°55.765 6.902782 3.222077 31.52267 0.803093
2005-01-17 08:16:56 51°13.691 2°55.759 6.902251 3.226921 31.579832 0.836802
2005-01-17 08:17:01 51°13.693 2°55.752 6.895511 3.225342 31.565046 0.93793
2005-01-17 08:17:06 51°13.694 2°55.748 6.895511 3.225342 31.565046 0.93793
2005-01-17 08:17:09 51°13.694 2°55.746 6.895723 3.228817 31.608951 0.836802
2005-01-17 08:17:16 51°13.695 2°55.744 6.893653 3.228501 31.610204 0.836802
2005-01-17 08:17:20 51°13.695 2°55.744 6.890893 3.227554 31.602265 0.836802
2005-01-17 08:17:25 51°13.696 2°55.744 6.892008 3.225447 31.584101 0.870512
2005-01-17 08:17:29 51°13.697 2°55.744 6.892751 3.223236 31.561677 0.97164
2005-01-17 08:17:36 51°13.699 2°55.747 6.892751 3.223236 31.561677 0.97164
2005-01-17 08:17:41 51°13.7 2°55.749 6.895511 3.22292 31.560587 0.870512
2005-01-17 08:17:46 51°13.703 2°55.752 6.889035 3.210494 31.428191 0.836802
2005-01-17 08:17:51 51°13.705 2°55.754 6.887867 3.177324 31.068918 0.870512
2005-01-17 08:17:56 51°13.708 2°55.756 6.889566 3.195225 31.264282 0.836802
2005-01-17 08:18:01 51°13.709 2°55.757 6.886169 3.214496 31.47157 0.836802
2005-01-17 08:18:06 51°13.71 2°55.758 6.886169 3.214496 31.47157 0.836802
2005-01-17 08:18:10 51°13.711 2°55.758 6.888292 3.217971 31.511582 0.870512
2005-01-17 08:18:16 51°13.712 2°55.757 6.884895 3.213548 31.464401 0.803093
2005-01-17 08:18:21 51°13.712 2°55.757 6.880648 3.211758 31.446545 0.803093
2005-01-17 08:18:26 51°13.711 2°55.756 6.885585 3.209125 31.420331 0.769383
2005-01-17 08:18:32 51°13.71 2°55.755 6.878153 3.204071 31.365538 0.769383
2005-01-17 08:18:36 51°13.71 2°55.754 6.879374 3.200069 31.322171 1.039059
2005-01-17 08:18:40 51°13.709 2°55.753 6.879374 3.200069 31.322171 1.039059
2005-01-17 08:18:46 51°13.707 2°55.752 6.881869 3.202702 31.353023 1.106477
2005-01-17 08:18:52 51°13.707 2°55.751 6.885585 3.201754 31.344298 0.93793
2005-01-17 08:18:56 51°13.708 2°55.751 6.879161 3.200701 31.335206 1.039059
2005-01-17 08:19:02 51°13.709 2°55.75 6.876719 3.199964 31.326442 0.97164
2005-01-17 08:19:06 51°13.71 2°55.75 6.873958 3.199122 31.316539 1.039059
2005-01-17 08:19:12 51°13.713 2°55.749 6.873958 3.199122 31.316539 1.039059
2005-01-17 08:19:16 51°13.714 2°55.748 6.874595 3.201544 31.342789 1.072768
2005-01-17 08:19:20 51°13.716 2°55.747 6.874011 3.204387 31.376708 0.97164
2005-01-17 08:19:26 51°13.72 2°55.745 6.871304 3.209441 31.431514 0.97164
2005-01-17 08:19:30 51°13.722 2°55.742 6.875073 3.213654 31.481861 1.140187
2005-01-17 08:19:36 51°13.727 2°55.738 6.876666 3.217129 31.518783 0.97164
2005-01-17 08:19:40 51°13.731 2°55.734 6.876666 3.217129 31.518783 0.97164
2005-01-17 08:19:46 51°13.737 2°55.728 6.877516 3.220288 31.556179 1.005349
2005-01-17 08:19:50 51°13.742 2°55.723 6.884205 3.222499 31.580959 1.106477
2005-01-17 08:19:56 51°13.749 2°55.715 6.880329 3.222604 31.582102 1.072768
2005-01-17 08:20:01 51°13.756 2°55.709 6.876613 3.223658 31.591191 1.005349
2005-01-17 08:20:06 51°13.763 2°55.701 6.876613 3.223658 31.591191 1.005349
2005-01-17 08:20:11 51°13.771 2°55.694 6.880223 3.223658 31.591971 1.207606
2005-01-17 08:20:16 51°13.779 2°55.686 6.87587 3.223552 31.587707 1.072768
2005-01-17 08:20:21 51°13.787 2°55.678 6.873587 3.223973 31.589939 0.97164
2005-01-17 08:20:24 51°13.792 2°55.673 6.874542 3.223973 31.592279 0.97164
2005-01-17 08:20:29 51°13.8 2°55.664 6.872897 3.221235 31.564905 1.005349
2005-01-17 08:20:36 51°13.812 2°55.651 6.863604 3.218603 31.534779 1.039059
2005-01-17 08:20:41 51°13.822 2°55.642 6.863604 3.218603 31.534779 1.039059
2005-01-17 08:20:46 51°13.831 2°55.634 6.855586 3.216813 31.516134 0.97164
2005-01-17 08:20:52 51°13.843 2°55.624 6.845282 3.216181 31.510835 1.072768
2005-01-17 08:20:56 51°13.851 2°55.617 6.837048 3.214707 31.49484 0.97164
2005-01-17 08:21:01 51°13.862 2°55.608 6.855108 3.210179 31.451157 1.275024
2005-01-17 08:21:06 51°13.873 2°55.6 6.855108 3.210179 31.451157 1.275024
2005-01-17 08:21:10 51°13.881 2°55.594 6.843104 3.206493 31.418161 1.409862
2005-01-17 08:21:16 51°13.895 2°55.584 6.834605 3.200491 31.361573 1.5447
2005-01-17 08:21:20 51°13.903 2°55.578 6.832001 3.193541 31.29005 1.578409
2005-01-17 08:21:24 51°13.913 2°55.572 6.831098 3.19133 31.266065 1.645828
2005-01-17 08:21:30 51°13.926 2°55.562 6.824882 3.196384 31.321666 1.780665
2005-01-17 08:21:36 51°13.94 2°55.552 6.824882 3.196384 31.321666 1.780665
2005-01-17 08:21:40 51°13.949 2°55.545 6.825095 3.201755 31.383814 1.679537
2005-01-17 08:21:46 51°13.962 2°55.535 6.825148 3.208389 31.461269 1.713247
2005-01-17 08:21:51 51°13.974 2°55.527 6.819515 3.213127 31.517404 1.713247
2005-01-17 08:21:56 51°13.985 2°55.518 6.819515 3.217445 31.566648 1.780665
2005-01-17 08:22:00 51°13.994 2°55.511 6.823022 3.221657 31.614765 1.746956
2005-01-17 08:22:06 51°14.008 2°55.5 6.822225 3.225343 31.655608 1.746956
2005-01-17 08:22:09 51°14.015 2°55.495 6.822225 3.225343 31.655608 1.746956
2005-01-17 08:22:16 51°14.031 2°55.483 6.822597 3.230292 31.712554 1.780665
2005-01-17 08:22:20 51°14.04 2°55.477 6.821747 3.234084 31.755353 1.848084
2005-01-17 08:22:26 51°14.054 2°55.466 6.817337 3.236506 31.781698 1.645828
2005-01-17 08:22:31 51°14.067 2°55.457 6.815158 3.238822 31.8069 1.645828
2005-01-17 08:22:36 51°14.079 2°55.448 6.822863 3.23956 31.814132 1.645828
2005-01-17 08:22:41 51°14.092 2°55.439 6.822863 3.23956 31.814132 1.645828
2005-01-17 08:22:46 51°14.105 2°55.43 6.823288 3.237875 31.795803 1.51099
2005-01-17 08:22:51 51°14.118 2°55.42 6.817974 3.235979 31.779115 1.51099
2005-01-17 08:22:56 51°14.131 2°55.41 6.8218 3.235979 31.779902 1.342443
2005-01-17 08:23:01 51°14.144 2°55.4 6.809684 3.236716 31.787921 1.308734
2005-01-17 08:23:06 51°14.157 2°55.389 6.804263 3.2364 31.782911 1.207606
2005-01-17 08:23:12 51°14.173 2°55.374 6.804263 3.2364 31.782911 1.207606
2005-01-17 08:23:16 51°14.183 2°55.365 6.808409 3.233873 31.755419 1.173896
2005-01-17 08:23:21 51°14.196 2°55.352 6.803041 3.230924 31.725704 1.140187
2005-01-17 08:23:26 51°14.208 2°55.338 6.800808 3.226607 31.681101 1.140187
2005-01-17 08:23:30 51°14.217 2°55.326 6.793845 3.2225 31.642707 0.904221
2005-01-17 08:23:36 51°14.231 2°55.308 6.793739 3.219657 31.613353 1.140187
2005-01-17 08:23:41 51°14.243 2°55.291 6.793739 3.219657 31.613353 1.140187
2005-01-17 08:23:46 51°14.254 2°55.274 6.78821 3.216182 31.575567 1.039059
2005-01-17 08:23:52 51°14.267 2°55.252 6.780342 3.213338 31.550905 1.140187
2005-01-17 08:23:56 51°14.276 2°55.237 6.780554 3.213023 31.549813 1.005349
2005-01-17 08:24:01 51°14.286 2°55.218 6.780395 3.213865 31.5621 1.005349
2005-01-17 08:24:05 51°14.295 2°55.202 6.777789 3.210811 31.534357 0.93793
2005-01-17 08:24:11 51°14.307 2°55.177 6.777789 3.210811 31.534357 0.93793
2005-01-17 08:24:16 51°14.317 2°55.157 6.776779 3.207652 31.503903 0.93793
2005-01-17 08:24:21 51°14.327 2°55.136 6.775078 3.207758 31.508951 1.072768
2005-01-17 08:24:26 51°14.337 2°55.115 6.778906 3.210601 31.539878 0.97164
2005-01-17 08:24:31 51°14.347 2°55.095 6.783106 3.21376 31.575811 1.072768
2005-01-17 08:24:36 51°14.358 2°55.074 6.783106 3.21376 31.575811 1.072768
2005-01-17 08:24:40 51°14.367 2°55.058 6.785658 3.214181 31.581959 0.904221
2005-01-17 08:24:46 51°14.38 2°55.034 6.781724 3.215234 31.594983 1.005349
2005-01-17 08:24:50 51°14.39 2°55.019 6.786403 3.21734 31.616337 1.005349
2005-01-17 08:24:56 51°14.404 2°54.996 6.78518 3.219868 31.641491 0.93793
2005-01-17 08:25:01 51°14.416 2°54.977 6.781033 3.221868 31.662483 0.97164
2005-01-17 08:25:06 51°14.429 2°54.958 6.781033 3.221868 31.662483 0.97164
2005-01-17 08:25:10 51°14.438 2°54.944 6.775184 3.223237 31.678168 1.039059
2005-01-17 08:25:16 51°14.454 2°54.922 6.778906 3.225343 31.699523 0.97164
2005-01-17 08:25:21 51°14.467 2°54.905 6.780767 3.229872 31.748034 1.106477
2005-01-17 08:25:25 51°14.477 2°54.891 6.778693 3.235664 31.812679 0.93793
2005-01-17 08:25:29 51°14.488 2°54.877 6.775769 3.245141 31.918297 0.93793
2005-01-17 08:25:36 51°14.506 2°54.854 6.768643 3.252829 32.002082 1.005349
2005-01-17 08:25:40 51°14.516 2°54.84 6.768643 3.252829 32.002082 1.005349
2005-01-17 08:25:45 51°14.529 2°54.822 6.760453 3.260201 32.080068 0.93793
2005-01-17 08:25:49 51°14.54 2°54.808 6.759602 3.268837 32.175841 1.005349
2005-01-17 08:25:56 51°14.558 2°54.784 6.755241 3.279789 32.29775 1.005349
2005-01-17 08:26:01 51°14.572 2°54.768 6.749337 3.292954 32.445504 1.072768
2005-01-17 08:26:06 51°14.586 2°54.753 6.752688 3.305277 32.585792 1.106477
2005-01-17 08:26:10 51°14.598 2°54.74 6.752688 3.305277 32.585792 1.106477
2005-01-17 08:26:16 51°14.614 2°54.721 6.758113 3.314545 32.691989 1.072768
2005-01-17 08:26:21 51°14.628 2°54.706 6.748645 3.3196 32.750538 1.039059
2005-01-17 08:26:26 51°14.643 2°54.69 6.753858 3.323919 32.802671 1.005349
2005-01-17 08:26:31 51°14.656 2°54.674 6.754975 3.326341 32.830814 1.072768
2005-01-17 08:26:36 51°14.67 2°54.659 6.761996 3.326236 32.826404 1.106477
2005-01-17 08:26:41 51°14.684 2°54.643 6.761996 3.326236 32.826404 1.106477
2005-01-17 08:26:46 51°14.698 2°54.627 6.771196 3.328448 32.853059 0.97164
2005-01-17 08:26:49 51°14.706 2°54.618 6.780607 3.331291 32.884193 0.93793
2005-01-17 08:26:56 51°14.726 2°54.597 6.784914 3.334346 32.916822 0.904221
2005-01-17 08:27:01 51°14.74 2°54.582 6.795599 3.334767 32.917352 0.97164
2005-01-17 08:27:06 51°14.754 2°54.567 6.811916 3.339401 32.963193 0.93793
2005-01-17 08:27:09 51°14.763 2°54.558 6.811916 3.339401 32.963193 0.93793
2005-01-17 08:27:16 51°14.782 2°54.537 6.815796 3.347827 33.050556 0.904221
2005-01-17 08:27:20 51°14.794 2°54.525 6.82892 3.355095 33.122775 0.735674
2005-01-17 08:27:26 51°14.811 2°54.507 6.847247 3.364258 33.214936 0.803093
2005-01-17 08:27:29 51°14.819 2°54.498 6.852346 3.36963 33.264724 0.803093
2005-01-17 08:27:36 51°14.839 2°54.477 6.852346 3.36963 33.264724 0.803093
2005-01-17 08:27:41 51°14.853 2°54.462 6.862595 3.375845 33.323732 0.735674
2005-01-17 08:27:44 51°14.862 2°54.453 6.870613 3.380795 33.369707 0.769383
2005-01-17 08:27:49 51°14.876 2°54.438 6.883514 3.375002 33.293882 0.769383
2005-01-17 08:27:56 51°14.896 2°54.418 6.901932 3.38248 33.365034 0.668255
2005-01-17 08:28:00 51°14.906 2°54.408 6.925279 3.386799 33.403227 0.769383
2005-01-17 08:28:06 51°14.921 2°54.392 6.925279 3.386799 33.403227 0.769383
2005-01-17 08:28:11 51°14.932 2°54.38 6.929948 3.394488 33.479138 0.735674
2005-01-17 08:28:16 51°14.942 2°54.368 6.941723 3.396805 33.495397 0.701965
2005-01-17 08:28:21 51°14.952 2°54.357 6.96373 3.398175 33.497963 0.634546
2005-01-17 08:28:26 51°14.962 2°54.345 6.980588 3.399649 33.496714 0.735674
2005-01-17 08:28:31 51°14.971 2°54.334 6.996701 3.403336 33.522966 0.769383
2005-01-17 08:28:36 51°14.98 2°54.324 6.996701 3.403336 33.522966 0.769383
2005-01-17 08:28:40 51°14.987 2°54.316 7.010054 3.407654 33.560254 0.533418
2005-01-17 08:28:46 51°14.997 2°54.305 7.024622 3.411236 33.582839 0.668255
2005-01-17 08:28:50 51°15.004 2°54.298 7.040194 3.414606 33.604763 0.634546
2005-01-17 08:28:56 51°15.014 2°54.288 7.050414 3.417661 33.623222 0.735674
2005-01-17 08:29:00 51°15.021 2°54.282 7.061744 3.421348 33.646085 0.634546
2005-01-17 08:29:06 51°15.03 2°54.273 7.071803 3.423138 33.652377 0.668255
2005-01-17 08:29:10 51°15.036 2°54.267 7.071803 3.423138 33.652377 0.668255
2005-01-17 08:29:16 51°15.045 2°54.259 7.081806 3.425877 33.669013 0.533418
2005-01-17 08:29:20 51°15.051 2°54.253 7.089162 3.428616 33.685639 0.668255
2005-01-17 08:29:25 51°15.059 2°54.246 7.094877 3.43146 33.706722 0.668255
2005-01-17 08:29:28 51°15.063 2°54.242 7.101544 3.433566 33.717267 0.600836
2005-01-17 08:29:36 51°15.075 2°54.231 7.107628 3.43483 33.721933 0.567127
2005-01-17 08:29:41 51°15.082 2°54.224 7.107628 3.43483 33.721933 0.567127
2005-01-17 08:29:45 51°15.087 2°54.219 7.112919 3.436726 33.735146 0.567127
2005-01-17 08:29:52 51°15.097 2°54.21 7.114982 3.438622 33.746697 0.701965
2005-01-17 08:29:56 51°15.102 2°54.206 7.119689 3.439886 33.754671 0.499708
2005-01-17 08:30:00 51°15.108 2°54.201 7.122598 3.440729 33.756394 0.634546
2005-01-17 08:30:06 51°15.117 2°54.194 7.12556 3.441466 33.761114 0.668255
2005-01-17 08:30:09 51°15.12 2°54.19 7.12556 3.441466 33.761114 0.668255
2005-01-17 08:30:16 51°15.129 2°54.183 7.128363 3.442836 33.769402 0.600836
2005-01-17 08:30:21 51°15.136 2°54.177 7.131378 3.4441 33.779029 0.634546
2005-01-17 08:30:25 51°15.141 2°54.173 7.132277 3.445048 33.788528 0.567127
2005-01-17 08:30:29 51°15.146 2°54.168 7.134234 3.44568 33.789608 0.533418
2005-01-17 08:30:36 51°15.154 2°54.16 7.135186 3.445996 33.789734 0.634546
2005-01-17 08:30:41 51°15.16 2°54.154 7.135186 3.445996 33.789734 0.634546
2005-01-17 08:30:46 51°15.166 2°54.148 7.136243 3.446101 33.788394 0.499708
2005-01-17 08:30:50 51°15.171 2°54.143 7.138253 3.447155 33.798208 0.567127
2005-01-17 08:30:56 51°15.178 2°54.136 7.138887 3.447997 33.804899 0.600836
2005-01-17 08:31:00 51°15.183 2°54.131 7.140156 3.447997 33.804069 0.567127
2005-01-17 08:31:06 51°15.19 2°54.124 7.139733 3.448419 33.806999 0.499708
2005-01-17 08:31:11 51°15.196 2°54.118 7.139733 3.448419 33.806999 0.499708
2005-01-17 08:31:16 51°15.201 2°54.113 7.139257 3.448524 33.806488 0.533418
2005-01-17 08:31:20 51°15.206 2°54.108 7.140897 3.448524 33.80483 0.600836
2005-01-17 08:31:26 51°15.212 2°54.1 7.14354 3.449261 33.81203 0.634546
2005-01-17 08:31:31 51°15.218 2°54.094 7.140738 3.449261 33.812859 0.533418
2005-01-17 08:31:36 51°15.224 2°54.088 7.140738 3.449261 33.812859 0.533418
2005-01-17 08:31:41 51°15.229 2°54.084 7.142166 3.449472 33.814324 0.533418
2005-01-17 08:31:46 51°15.235 2°54.078 7.143012 3.449261 33.811201 0.701965
2005-01-17 08:31:49 51°15.238 2°54.076 7.143435 3.449261 33.809542 0.567127
2005-01-17 08:31:56 51°15.246 2°54.068 7.143117 3.449472 33.813495 0.567127
2005-01-17 08:32:00 51°15.25 2°54.063 7.142219 3.449577 33.812983 0.634546
2005-01-17 08:32:05 51°15.255 2°54.058 7.142219 3.449577 33.812983 0.634546
2005-01-17 08:32:10 51°15.261 2°54.053 7.141954 3.449893 33.814766 0.533418
2005-01-17 08:32:16 51°15.267 2°54.045 7.144175 3.449999 33.816742 0.567127
2005-01-17 08:32:20 51°15.271 2°54.041 7.145021 3.450209 33.818206 0.465999
2005-01-17 08:32:24 51°15.275 2°54.036 7.145021 3.449999 33.816742 0.600836
2005-01-17 08:32:32 51°15.284 2°54.027 7.145391 3.45042 33.82133 0.499708
2005-01-17 08:32:36 51°15.288 2°54.023 7.144228 3.449893 33.814766 0.634546
2005-01-17 08:32:40 51°15.292 2°54.018 7.144228 3.449893 33.814766 0.634546
2005-01-17 08:32:44 51°15.297 2°54.012 7.147189 3.449893 33.813936 0.735674
2005-01-17 08:32:50 51°15.305 2°54.003 7.145127 3.450315 33.818524 0.567127
2005-01-17 08:32:56 51°15.314 2°53.993 7.146819 3.450736 33.822282 0.701965
2005-01-17 08:33:01 51°15.324 2°53.983 7.147189 3.439675 33.701884 0.600836
2005-01-17 08:33:05 51°15.332 2°53.975 7.149092 3.431985 33.617392 0.668255
2005-01-17 08:33:11 51°15.345 2°53.962 7.149092 3.431985 33.617392 0.668255
2005-01-17 08:33:16 51°15.357 2°53.951 7.145074 3.438411 33.686477 0.465999
2005-01-17 08:33:21 51°15.369 2°53.938 7.147876 3.439675 33.699405 0.533418
2005-01-17 08:33:26 51°15.382 2°53.925 7.149515 3.440729 33.710868 0.668255
2005-01-17 08:33:31 51°15.396 2°53.91 7.149462 3.442941 33.734942 0.668255
2005-01-17 08:33:36 51°15.41 2°53.895 7.151101 3.445469 33.762458 0.567127
2005-01-17 08:33:40 51°15.421 2°53.882 7.151101 3.445469 33.762458 0.567127
2005-01-17 08:33:46 51°15.439 2°53.862 7.15274 3.450841 33.820941 0.634546
2005-01-17 08:33:50 51°15.45 2°53.849 7.151841 3.444626 33.754114 0.499708
2005-01-17 08:33:56 51°15.468 2°53.828 7.153374 3.445785 33.764242 0.634546
2005-01-17 08:34:00 51°15.48 2°53.815 7.159137 3.445469 33.759975 0.533418
2005-01-17 08:34:04 51°15.493 2°53.801 7.155595 3.450841 33.819283 0.634546
2005-01-17 08:34:12 51°15.518 2°53.774 7.155595 3.450841 33.819283 0.634546
2005-01-17 08:34:16 51°15.531 2°53.76 7.148775 3.448208 33.786472 0.668255
2005-01-17 08:34:21 51°15.547 2°53.743 7.147559 3.449788 33.8045 0.701965
2005-01-17 08:34:26 51°15.562 2°53.726 7.144598 3.446101 33.762715 0.701965
2005-01-17 08:34:31 51°15.579 2°53.708 7.141478 3.450736 33.810675 0.701965
2005-01-17 08:34:36 51°15.596 2°53.691 7.138147 3.451157 33.817748 0.803093
2005-01-17 08:34:41 51°15.612 2°53.675 7.138147 3.451157 33.817748 0.803093
2005-01-17 08:34:46 51°15.629 2°53.661 7.138517 3.446944 33.776026 0.600836
2005-01-17 08:34:51 51°15.646 2°53.646 7.140051 3.448419 33.793736 0.634546
2005-01-17 08:34:56 51°15.663 2°53.631 7.148088 3.449261 33.806226 0.600836
2005-01-17 08:35:01 51°15.681 2°53.616 7.147982 3.448419 33.79788 0.634546
2005-01-17 08:35:05 51°15.694 2°53.606 7.147982 3.448419 33.79788 0.634546
2005-01-17 08:35:09 51°15.708 2°53.594 7.150202 3.444732 33.760227 0.735674
2005-01-17 08:35:16 51°15.733 2°53.574 7.156388 3.449261 33.808713 0.600836
2005-01-17 08:35:20 51°15.746 2°53.562 7.158449 3.449367 33.808202 0.567127
2005-01-17 08:35:25 51°15.763 2°53.547 7.159824 3.448524 33.79654 0.567127
2005-01-17 08:35:29 51°15.777 2°53.536 7.162467 3.451157 33.823553 0.668255
2005-01-17 08:35:36 51°15.801 2°53.516 7.162361 3.452106 33.831386 0.701965
2005-01-17 08:35:41 51°15.819 2°53.501 7.162361 3.452106 33.831386 0.701965
2005-01-17 08:35:46 51°15.836 2°53.487 7.166008 3.452843 33.834436 0.701965
2005-01-17 08:35:51 51°15.853 2°53.473 7.167436 3.45358 33.840804 0.567127
2005-01-17 08:35:56 51°15.871 2°53.458 7.164264 3.454423 33.847489 0.634546
2005-01-17 08:36:00 51°15.885 2°53.447 7.163577 3.455687 33.859589 0.701965
2005-01-17 08:36:06 51°15.906 2°53.429 7.163577 3.455687 33.859589 0.701965
2005-01-17 08:36:11 51°15.924 2°53.415 7.163048 3.456214 33.863662 0.735674
2005-01-17 08:36:16 51°15.941 2°53.4 7.160723 3.456214 33.862832 0.769383
2005-01-17 08:36:21 51°15.958 2°53.387 7.164 3.45653 33.864612 0.668255
2005-01-17 08:36:26 51°15.976 2°53.372 7.158767 3.456951 33.870028 0.803093
2005-01-17 08:36:30 51°15.99 2°53.361 7.161886 3.456003 33.863029 0.634546
2005-01-17 08:36:36 51°16.011 2°53.344 7.153692 3.457162 33.875643 0.870512
2005-01-17 08:36:41 51°16.029 2°53.33 7.153692 3.457162 33.875643 0.870512
2005-01-17 08:36:46 51°16.046 2°53.316 7.159242 3.456846 33.871372 0.735674
2005-01-17 08:36:49 51°16.057 2°53.307 7.160934 3.45653 33.868762 0.803093
2005-01-17 08:36:56 51°16.082 2°53.288 7.158344 3.457478 33.881574 0.634546
2005-01-17 08:37:00 51°16.096 2°53.277 7.158714 3.457689 33.885529 0.803093
2005-01-17 08:37:06 51°16.117 2°53.26 7.158502 3.457583 33.884382 0.567127
2005-01-17 08:37:10 51°16.131 2°53.248 7.158502 3.457583 33.884382 0.567127
2005-01-17 08:37:16 51°16.152 2°53.231 7.158925 3.457899 33.887823 0.600836
2005-01-17 08:37:21 51°16.169 2°53.217 7.159824 3.457057 33.876987 0.600836
2005-01-17 08:37:26 51°16.187 2°53.203 7.161463 3.457899 33.887823 0.735674
2005-01-17 08:37:30 51°16.2 2°53.191 7.163366 3.458321 33.89241 0.634546
2005-01-17 08:37:36 51°16.222 2°53.175 7.164793 3.45969 33.908152 0.600836
2005-01-17 08:37:41 51°16.239 2°53.161 7.164793 3.45969 33.908152 0.600836
2005-01-17 08:37:46 51°16.257 2°53.147 7.163736 3.460322 33.913372 0.701965
2005-01-17 08:37:48 51°16.264 2°53.14 7.167858 3.459164 33.904079 0.701965
2005-01-17 08:37:56 51°16.292 2°53.118 7.16881 3.461586 33.925473 0.701965
2005-01-17 08:38:00 51°16.306 2°53.108 7.171083 3.461797 33.926936 0.769383
2005-01-17 08:38:06 51°16.327 2°53.092 7.17827 3.46127 33.920369 0.701965
2005-01-17 08:38:10 51°16.341 2°53.081 7.17827 3.46127 33.920369 0.701965
2005-01-17 08:38:16 51°16.362 2°53.065 7.181018 3.462956 33.937057 0.533418
2005-01-17 08:38:20 51°16.376 2°53.054 7.186619 3.463167 33.937688 0.701965
2005-01-17 08:38:26 51°16.398 2°53.037 7.18831 3.463693 33.940095 0.600836
2005-01-17 08:38:31 51°16.415 2°53.023 7.195285 3.462324 33.921031 0.769383
2005-01-17 08:38:36 51°16.432 2°53.01 7.198402 3.464852 33.943561 0.668255
2005-01-17 08:38:41 51°16.45 2°52.996 7.198402 3.464852 33.943561 0.668255
2005-01-17 08:38:46 51°16.467 2°52.983 7.201519 3.465379 33.947631 0.634546
2005-01-17 08:38:49 51°16.479 2°52.974 7.204794 3.464957 33.938057 0.769383
2005-01-17 08:38:56 51°16.503 2°52.956 7.211503 3.466432 33.95078 0.735674
2005-01-17 08:39:00 51°16.517 2°52.944 7.214672 3.466116 33.944016 0.668255
2005-01-17 08:39:06 51°16.538 2°52.928 7.220323 3.466959 33.949029 0.701965
2005-01-17 08:39:10 51°16.552 2°52.917 7.220323 3.466959 33.949029 0.701965
2005-01-17 08:39:16 51°16.573 2°52.901 7.22365 3.468012 33.957165 0.668255
2005-01-17 08:39:21 51°16.591 2°52.887 7.226766 3.468644 33.959885 0.769383
2005-01-17 08:39:26 51°16.608 2°52.873 7.230674 3.467696 33.945417 0.668255
2005-01-17 08:39:30 51°16.623 2°52.862 7.235584 3.469381 33.957931 0.769383
2005-01-17 08:39:36 51°16.643 2°52.845 7.235584 3.469381 33.957931 0.769383
2005-01-17 08:39:40 51°16.658 2°52.835 7.239755 3.470013 33.96065 0.769383
2005-01-17 08:39:46 51°16.679 2°52.82 7.239544 3.470013 33.957327 0.803093
2005-01-17 08:39:50 51°16.693 2°52.811 7.244243 3.471172 33.967434 0.836802
2005-01-17 08:39:56 51°16.715 2°52.796 7.244507 3.470435 33.955263 0.803093
2005-01-17 08:40:01 51°16.732 2°52.784 7.248678 3.469487 33.940805 0.904221
2005-01-17 08:40:06 51°16.751 2°52.771 7.2491 3.470751 33.952055 0.769383
2005-01-17 08:40:10 51°16.766 2°52.761 7.2491 3.470751 33.952055 0.769383
2005-01-17 08:40:16 51°16.787 2°52.746 7.253165 3.472331 33.965908 0.803093
2005-01-17 08:40:21 51°16.804 2°52.734 7.252373 3.471488 33.954258 0.904221
2005-01-17 08:40:26 51°16.823 2°52.722 7.253165 3.473174 33.970085 0.904221
2005-01-17 08:40:31 51°16.84 2°52.71 7.254537 3.472647 33.961869 1.005349
2005-01-17 08:40:36 51°16.858 2°52.698 7.261505 3.471804 33.951882 1.106477
2005-01-17 08:40:40 51°16.872 2°52.688 7.261505 3.471804 33.951882 1.106477
2005-01-17 08:40:46 51°16.893 2°52.674 7.263405 3.47212 33.952826 1.039059
2005-01-17 08:40:51 51°16.911 2°52.662 7.261346 3.474648 33.979467 1.005349
2005-01-17 08:40:56 51°16.93 2°52.649 7.262138 3.474332 33.974372 0.93793
2005-01-17 08:41:00 51°16.944 2°52.64 7.260977 3.473384 33.96158 0.97164
2005-01-17 08:41:06 51°16.966 2°52.624 7.262982 3.474754 33.974799 1.039059
2005-01-17 08:41:08 51°16.973 2°52.62 7.262982 3.474754 33.974799 1.039059
2005-01-17 08:41:16 51°17.002 2°52.599 7.264143 3.474648 33.972824 1.072768
2005-01-17 08:41:20 51°17.017 2°52.589 7.266413 3.4737 33.961694 1.072768
2005-01-17 08:41:25 51°17.035 2°52.576 7.268577 3.475491 33.980319 0.93793
2005-01-17 08:41:29 51°17.05 2°52.566 7.27016 3.475807 33.983753 1.072768
2005-01-17 08:41:36 51°17.075 2°52.55 7.271268 3.475596 33.979803 0.97164
2005-01-17 08:41:41 51°17.093 2°52.537 7.271268 3.475596 33.979803 0.97164
2005-01-17 08:41:46 51°17.111 2°52.524 7.276281 3.472857 33.948391 1.072768
2005-01-17 08:41:50 51°17.125 2°52.514 7.276281 3.474332 33.961921 1.072768
2005-01-17 08:41:56 51°17.147 2°52.5 7.277706 3.475912 33.977425 0.97164
2005-01-17 08:42:01 51°17.165 2°52.487 7.2795 3.477809 33.996361 1.072768
2005-01-17 08:42:06 51°17.183 2°52.473 7.285884 3.476544 33.980139 0.97164
2005-01-17 08:42:10 51°17.198 2°52.463 7.285884 3.476544 33.980139 0.97164
2005-01-17 08:42:16 51°17.219 2°52.449 7.28446 3.477493 33.988776 1.072768
2005-01-17 08:42:21 51°17.238 2°52.437 7.286729 3.477387 33.985972 1.140187
2005-01-17 08:42:26 51°17.256 2°52.424 7.287256 3.478335 33.995439 1.005349
2005-01-17 08:42:31 51°17.274 2°52.412 7.287837 3.479073 33.998465 1.005349
2005-01-17 08:42:36 51°17.293 2°52.399 7.286465 3.477703 33.982764 1.072768
2005-01-17 08:42:40 51°17.307 2°52.389 7.286465 3.477703 33.982764 1.072768
2005-01-17 08:42:46 51°17.329 2°52.373 7.285251 3.478862 33.993687 1.140187
2005-01-17 08:42:51 51°17.347 2°52.362 7.288575 3.479073 33.993484 1.039059
2005-01-17 08:42:56 51°17.366 2°52.35 7.285093 3.480337 34.00638 0.904221
2005-01-17 08:43:01 51°17.384 2°52.337 7.284671 3.479915 34.002635 1.005349
2005-01-17 08:43:06 51°17.402 2°52.325 7.284671 3.479915 34.002635 1.005349
2005-01-17 08:43:10 51°17.416 2°52.316 7.282824 3.480653 34.010642 1.140187
2005-01-17 08:43:16 51°17.438 2°52.302 7.282086 3.48118 34.016361 1.039059
2005-01-17 08:43:21 51°17.457 2°52.289 7.276703 3.481074 34.014387 1.039059
2005-01-17 08:43:26 51°17.475 2°52.276 7.274171 3.480337 34.00721 0.93793
2005-01-17 08:43:29 51°17.486 2°52.269 7.272429 3.48139 34.01948 1.005349
2005-01-17 08:43:36 51°17.511 2°52.249 7.263616 3.481812 34.027379 0.904221
2005-01-17 08:43:41 51°17.528 2°52.232 7.263616 3.481812 34.027379 0.904221
2005-01-17 08:43:46 51°17.544 2°52.215 7.263246 3.48118 34.023007 1.005349
2005-01-17 08:43:50 51°17.556 2°52.2 7.264143 3.479916 34.013431 0.97164
2005-01-17 08:43:56 51°17.575 2°52.177 7.258707 3.479389 34.011033 1.039059
2005-01-17 08:44:00 51°17.587 2°52.161 7.256807 3.480337 34.024657 1.173896
2005-01-17 08:44:06 51°17.605 2°52.137 7.258285 3.480758 34.033392 1.005349
2005-01-17 08:44:11 51°17.62 2°52.117 7.258285 3.480758 34.033392 1.005349
2005-01-17 08:44:16 51°17.633 2°52.095 7.256754 3.479705 34.022777 1.039059
2005-01-17 08:44:21 51°17.648 2°52.073 7.257757 3.477914 34.005813 1.005349
2005-01-17 08:44:26 51°17.661 2°52.051 7.258813 3.478968 34.020584 0.97164
2005-01-17 08:44:29 51°17.668 2°52.037 7.263405 3.478336 34.014547 0.836802
2005-01-17 08:44:36 51°17.687 2°52.005 7.26541 3.478336 34.014547 0.803093
2005-01-17 08:44:40 51°17.697 2°51.985 7.26541 3.478336 34.014547 0.803093
2005-01-17 08:44:45 51°17.71 2°51.962 7.268207 3.47823 34.015065 0.93793
2005-01-17 08:44:50 51°17.723 2°51.938 7.277442 3.478757 34.019958 0.97164
2005-01-17 08:44:56 51°17.738 2°51.91 7.282191 3.480126 34.032345 0.836802
2005-01-17 08:45:01 51°17.751 2°51.886 7.289156 3.480442 34.032453 1.005349
2005-01-17 08:45:05 51°17.761 2°51.867 7.291793 3.479284 34.018199 1.106477
2005-01-17 08:45:09 51°17.771 2°51.848 7.291793 3.479284 34.018199 1.106477
2005-01-17 08:45:16 51°17.789 2°51.815 7.297649 3.480864 34.029548 0.904221
2005-01-17 08:45:21 51°17.802 2°51.792 7.302133 3.48139 34.030282 0.904221
2005-01-17 08:45:26 51°17.815 2°51.769 7.301605 3.481917 34.030185 1.039059
2005-01-17 08:45:31 51°17.828 2°51.745 7.301394 3.483287 34.040072 0.97164
2005-01-17 08:45:36 51°17.841 2°51.722 7.305509 3.484129 34.044236 0.904221
2005-01-17 08:45:40 51°17.852 2°51.703 7.305509 3.484129 34.044236 0.904221
2005-01-17 08:45:46 51°17.867 2°51.675 7.309412 3.485077 34.051207 1.005349
2005-01-17 08:45:52 51°17.883 2°51.647 7.310941 3.484445 34.040189 0.904221
2005-01-17 08:45:56 51°17.894 2°51.628 7.310414 3.486447 34.061088 1.039059
2005-01-17 08:46:00 51°17.904 2°51.609 7.315424 3.485815 34.052564 0.803093
2005-01-17 08:46:06 51°17.92 2°51.581 7.32075 3.487395 34.065562 0.97164
2005-01-17 08:46:11 51°17.933 2°51.557 7.32075 3.487395 34.065562 0.97164
2005-01-17 08:46:16 51°17.946 2°51.533 7.321172 3.486763 34.057039 1.039059
2005-01-17 08:46:21 51°17.958 2°51.509 7.322754 3.487395 34.0639 0.97164
2005-01-17 08:46:26 51°17.969 2°51.483 7.321646 3.486868 34.055689 0.93793
2005-01-17 08:46:32 51°17.983 2°51.452 7.326023 3.486973 34.052678 0.97164
2005-01-17 08:46:36 51°17.991 2°51.431 7.323228 3.487816 34.05767 1.005349
2005-01-17 08:46:41 51°18.002 2°51.405 7.323228 3.487816 34.05767 1.005349
2005-01-17 08:46:46 51°18.012 2°51.378 7.323598 3.487816 34.058501 1.005349
2005-01-17 08:46:52 51°18.024 2°51.345 7.323756 3.488448 34.062868 1.039059
2005-01-17 08:46:56 51°18.032 2°51.324 7.322965 3.488448 34.062868 1.039059
2005-01-17 08:47:01 51°18.041 2°51.297 7.324758 3.488027 34.056634 0.97164
2005-01-17 08:47:05 51°18.049 2°51.274 7.324758 3.488027 34.056634 0.97164
2005-01-17 08:47:09 51°18.056 2°51.252 7.322543 3.488343 34.060063 1.106477
2005-01-17 08:47:16 51°18.069 2°51.214 7.326339 3.489291 34.070352 1.072768
2005-01-17 08:47:20 51°18.077 2°51.192 7.322227 3.489186 34.070039 1.072768
2005-01-17 08:47:26 51°18.089 2°51.159 7.324599 3.489396 34.072326 1.072768
2005-01-17 08:47:31 51°18.098 2°51.132 7.325707 3.48887 34.06661 1.072768
2005-01-17 08:47:36 51°18.108 2°51.105 7.333879 3.48908 34.067234 1.072768
2005-01-17 08:47:40 51°18.115 2°51.082 7.333879 3.48908 34.067234 1.072768
2005-01-17 08:47:46 51°18.127 2°51.05 7.327921 3.489502 34.071807 1.072768
2005-01-17 08:47:51 51°18.136 2°51.022 7.33177 3.49045 34.081264 1.072768
2005-01-17 08:47:56 51°18.146 2°50.995 7.334723 3.490871 34.084175 1.173896
2005-01-17 08:48:00 51°18.154 2°50.973 7.339362 3.490871 34.082512 1.376153
2005-01-17 08:48:06 51°18.165 2°50.94 7.342683 3.490871 34.081681 1.140187
2005-01-17 08:48:09 51°18.171 2°50.924 7.342683 3.490871 34.081681 1.140187
2005-01-17 08:48:16 51°18.185 2°50.887 7.348113 3.492135 34.095398 1.342443
2005-01-17 08:48:21 51°18.195 2°50.858 7.353331 3.491503 34.086877 1.342443
2005-01-17 08:48:24 51°18.201 2°50.842 7.358759 3.492557 34.094982 1.241315
2005-01-17 08:48:28 51°18.208 2°50.82 7.366295 3.493189 34.098515 1.308734
2005-01-17 08:48:36 51°18.224 2°50.777 7.365347 3.492557 34.086671 1.275024
2005-01-17 08:48:41 51°18.233 2°50.751 7.365347 3.492557 34.086671 1.275024
2005-01-17 08:48:46 51°18.243 2°50.724 7.370722 3.493083 34.08823 1.409862
2005-01-17 08:48:51 51°18.253 2°50.697 7.371459 3.494242 34.094982 1.308734
2005-01-17 08:48:56 51°18.262 2°50.67 7.374515 3.493294 34.080548 1.342443
2005-01-17 08:49:01 51°18.272 2°50.643 7.373883 3.494769 34.090726 1.275024
2005-01-17 08:49:06 51°18.281 2°50.616 7.374568 3.49519 34.092803 1.207606
2005-01-17 08:49:12 51°18.293 2°50.583 7.374568 3.49519 34.092803 1.207606
2005-01-17 08:49:16 51°18.301 2°50.562 7.374673 3.495401 34.093426 1.241315
2005-01-17 08:49:21 51°18.31 2°50.536 7.377782 3.496454 34.102355 1.140187
2005-01-17 08:49:26 51°18.32 2°50.509 7.374515 3.495717 34.09353 1.173896
2005-01-17 08:49:31 51°18.33 2°50.482 7.376886 3.496981 34.105573 1.308734
2005-01-17 08:49:36 51°18.339 2°50.455 7.374199 3.496876 34.1036 1.173896
2005-01-17 08:49:41 51°18.349 2°50.427 7.374199 3.496876 34.1036 1.173896
2005-01-17 08:49:46 51°18.359 2°50.401 7.372935 3.496138 34.094777 1.207606
2005-01-17 08:49:52 51°18.37 2°50.369 7.37225 3.496033 34.095295 1.106477
2005-01-17 08:49:56 51°18.378 2°50.347 7.372302 3.495822 34.091351 1.173896
2005-01-17 08:50:01 51°18.388 2°50.32 7.373883 3.495928 34.092493 1.140187
2005-01-17 08:50:06 51°18.398 2°50.293 7.372671 3.495822 34.093012 1.241315
2005-01-17 08:50:11 51°18.408 2°50.266 7.372671 3.495822 34.093012 1.241315
2005-01-17 08:50:16 51°18.417 2°50.239 7.376201 3.496244 34.097579 1.241315
2005-01-17 08:50:21 51°18.427 2°50.213 7.37109 3.494874 34.083565 1.039059
2005-01-17 08:50:26 51°18.437 2°50.186 7.367086 3.494558 34.080139 1.173896
2005-01-17 08:50:31 51°18.447 2°50.159 7.368456 3.493821 34.073806 1.241315
2005-01-17 08:50:36 51°18.456 2°50.133 7.363133 3.494347 34.077855 1.173896
2005-01-17 08:50:41 51°18.466 2°50.106 7.363133 3.494347 34.077855 1.173896
2005-01-17 08:50:46 51°18.476 2°50.078 7.364293 3.493821 34.072976 1.275024
2005-01-17 08:50:50 51°18.484 2°50.057 7.363871 3.495085 34.087509 1.275024
2005-01-17 08:50:56 51°18.495 2°50.025 7.361131 3.492872 34.065189 1.140187
2005-01-17 08:51:00 51°18.503 2°50.003 7.357547 3.494031 34.07941 1.106477
2005-01-17 08:51:06 51°18.513 2°49.97 7.352593 3.494242 34.083354 1.173896
2005-01-17 08:51:12 51°18.525 2°49.938 7.352593 3.494242 34.083354 1.173896
2005-01-17 08:51:16 51°18.532 2°49.916 7.350326 3.49203 34.061861 1.140187
2005-01-17 08:51:21 51°18.542 2°49.889 7.344317 3.494242 34.087506 1.241315
2005-01-17 08:51:26 51°18.551 2°49.862 7.345582 3.493294 34.078887 1.072768
2005-01-17 08:51:28 51°18.555 2°49.85 7.340522 3.493083 34.079093 1.106477
2005-01-17 08:51:36 51°18.57 2°49.808 7.335197 3.492873 34.080961 1.072768
2005-01-17 08:51:41 51°18.579 2°49.78 7.335197 3.492873 34.080961 1.072768
2005-01-17 08:51:46 51°18.588 2°49.753 7.335988 3.491609 34.072234 1.173896
2005-01-17 08:51:51 51°18.598 2°49.726 7.333299 3.490766 34.063924 1.140187
2005-01-17 08:51:56 51°18.607 2°49.699 7.328396 3.491609 34.074726 1.241315
2005-01-17 08:52:01 51°18.616 2°49.672 7.329925 3.490344 34.065997 1.140187
2005-01-17 08:52:06 51°18.626 2°49.645 7.322807 3.490977 34.075345 1.173896
2005-01-17 08:52:12 51°18.637 2°49.612 7.322807 3.490977 34.075345 1.173896
2005-01-17 08:52:16 51°18.644 2°49.591 7.323017 3.489818 34.064436 1.140187
2005-01-17 08:52:20 51°18.652 2°49.569 7.321541 3.490028 34.070044 1.241315
2005-01-17 08:52:26 51°18.663 2°49.537 7.316953 3.489712 34.067446 1.207606
2005-01-17 08:52:31 51°18.673 2°49.51 7.316742 3.489291 34.064536 1.173896
2005-01-17 08:52:36 51°18.682 2°49.483 7.312998 3.488659 34.062662 1.207606
2005-01-17 08:52:41 51°18.691 2°49.456 7.312998 3.488659 34.062662 1.207606
2005-01-17 08:52:46 51°18.701 2°49.429 7.309992 3.488238 34.05892 1.173896
2005-01-17 08:52:51 51°18.71 2°49.402 7.311046 3.488554 34.065673 1.005349
2005-01-17 08:52:56 51°18.719 2°49.374 7.303979 3.487711 34.057358 1.207606
2005-01-17 08:53:01 51°18.729 2°49.347 7.304348 3.487395 34.058082 1.275024
2005-01-17 08:53:06 51°18.738 2°49.32 7.300814 3.486763 34.052053 1.072768
2005-01-17 08:53:11 51°18.747 2°49.293 7.300814 3.486763 34.052053 1.072768
2005-01-17 08:53:16 51°18.757 2°49.266 7.300867 3.486131 34.047685 1.207606
2005-01-17 08:53:21 51°18.766 2°49.238 7.298599 3.486025 34.049034 1.207606
2005-01-17 08:53:26 51°18.776 2°49.211 7.29939 3.486131 34.051008 1.072768
2005-01-17 08:53:31 51°18.786 2°49.183 7.294378 3.485815 34.048409 1.241315
2005-01-17 08:53:36 51°18.795 2°49.156 7.294695 3.485288 34.046014 1.039059
2005-01-17 08:53:40 51°18.803 2°49.134 7.294695 3.485288 34.046014 1.039059
2005-01-17 08:53:46 51°18.815 2°49.101 7.299495 3.485077 34.045389 1.072768
2005-01-17 08:53:50 51°18.822 2°49.079 7.297385 3.484867 34.044764 1.039059
2005-01-17 08:53:56 51°18.833 2°49.046 7.295328 3.483813 34.034988 0.836802
2005-01-17 08:54:01 51°18.843 2°49.019 7.292954 3.484551 34.046319 1.072768
2005-01-17 08:54:06 51°18.853 2°48.992 7.296489 3.484551 34.045487 0.870512
2005-01-17 08:54:11 51°18.862 2°48.964 7.296489 3.484551 34.045487 0.870512
2005-01-17 08:54:16 51°18.872 2°48.937 7.293851 3.484235 34.040394 1.005349
2005-01-17 08:54:21 51°18.881 2°48.909 7.29422 3.484235 34.040394 1.072768
2005-01-17 08:54:25 51°18.889 2°48.887 7.291899 3.484129 34.041743 1.039059
2005-01-17 08:54:29 51°18.896 2°48.865 7.293007 3.484024 34.042261 0.93793
2005-01-17 08:54:36 51°18.909 2°48.828 7.292532 3.483603 34.037686 1.072768
2005-01-17 08:54:41 51°18.919 2°48.799 7.292532 3.483603 34.037686 1.072768
2005-01-17 08:54:46 51°18.929 2°48.771 7.293112 3.483497 34.036542 1.005349
2005-01-17 08:54:51 51°18.938 2°48.744 7.292637 3.483603 34.037686 0.904221
2005-01-17 08:54:56 51°18.948 2°48.717 7.292374 3.483603 34.037686 0.97164
2005-01-17 08:55:01 51°18.958 2°48.689 7.294378 3.483919 34.041118 0.93793
2005-01-17 08:55:06 51°18.967 2°48.663 7.293112 3.483708 34.03883 0.97164
2005-01-17 08:55:11 51°18.977 2°48.635 7.293112 3.483708 34.03883 0.97164
2005-01-17 08:55:16 51°18.986 2°48.608 7.293376 3.483603 34.037686 0.803093
2005-01-17 08:55:20 51°18.994 2°48.586 7.292004 3.483708 34.036337 1.005349
2005-01-17 08:55:26 51°19.005 2°48.552 7.293534 3.483286 34.032593 0.93793
2005-01-17 08:55:31 51°19.014 2°48.526 7.293271 3.483603 34.037686 1.039059
2005-01-17 08:55:36 51°19.023 2°48.498 7.291899 3.483603 34.038517 1.072768
2005-01-17 08:55:41 51°19.033 2°48.47 7.291899 3.483603 34.038517 1.072768
2005-01-17 08:55:45 51°19.041 2°48.449 7.291424 3.483813 34.040805 1.005349
2005-01-17 08:55:49 51°19.048 2°48.426 7.292004 3.483287 34.035916 1.005349
2005-01-17 08:55:56 51°19.062 2°48.389 7.293165 3.481285 34.014183 0.93793
2005-01-17 08:56:01 51°19.071 2°48.361 7.295117 3.481074 34.011895 0.93793
2005-01-17 08:56:06 51°19.081 2°48.334 7.293376 3.481074 34.012726 0.93793
2005-01-17 08:56:09 51°19.087 2°48.318 7.293376 3.481074 34.012726 0.93793
2005-01-17 08:56:16 51°19.1 2°48.279 7.291846 3.479389 33.993595 0.93793
2005-01-17 08:56:21 51°19.11 2°48.252 7.293482 3.483181 34.034772 0.904221
2005-01-17 08:56:26 51°19.119 2°48.225 7.291424 3.480337 34.002229 1.308734
2005-01-17 08:56:30 51°19.127 2°48.203 7.290263 3.478967 33.988191 0.836802
2005-01-17 08:56:36 51°19.138 2°48.17 7.292479 3.483076 34.033628 0.904221
2005-01-17 08:56:41 51°19.148 2°48.143 7.292479 3.483076 34.033628 0.904221
2005-01-17 08:56:46 51°19.157 2°48.115 7.291266 3.481917 34.021876 1.005349
2005-01-17 08:56:50 51°19.165 2°48.094 7.292849 3.483392 34.037891 0.904221
2005-01-17 08:56:56 51°19.176 2°48.061 7.29517 3.483497 34.039035 1.005349
2005-01-17 08:57:00 51°19.184 2°48.04 7.292532 3.483392 34.03706 0.97164
2005-01-17 08:57:06 51°19.195 2°48.007 7.2948 3.483497 34.039866 0.870512
2005-01-17 08:57:11 51°19.205 2°47.98 7.2948 3.483497 34.039866 0.870512
2005-01-17 08:57:16 51°19.215 2°47.955 7.294273 3.483181 34.034772 1.072768
2005-01-17 08:57:21 51°19.225 2°47.927 7.2967 3.476017 33.956171 0.93793
2005-01-17 08:57:26 51°19.234 2°47.9 7.300023 3.476439 33.959916 0.97164
2005-01-17 08:57:31 51°19.244 2°47.873 7.29997 3.474227 33.93839 0.97164
2005-01-17 08:57:36 51°19.253 2°47.847 7.302713 3.471804 33.908781 0.93793
2005-01-17 08:57:41 51°19.263 2°47.82 7.302713 3.471804 33.908781 0.93793
2005-01-17 08:57:46 51°19.272 2°47.793 7.307196 3.468432 33.873028 1.039059
2005-01-17 08:57:50 51°19.279 2°47.772 7.310414 3.479705 33.992877 0.93793
2005-01-17 08:57:56 51°19.29 2°47.739 7.312365 3.483602 34.032701 0.803093
2005-01-17 08:58:00 51°19.298 2°47.718 7.317744 3.484024 34.036445 0.97164
2005-01-17 08:58:06 51°19.31 2°47.685 7.324599 3.483708 34.030522 0.97164
2005-01-17 08:58:08 51°19.314 2°47.675 7.324599 3.483708 34.030522 0.97164
2005-01-17 08:58:16 51°19.329 2°47.632 7.333405 3.484129 34.031774 1.039059
2005-01-17 08:58:20 51°19.336 2°47.611 7.342209 3.48434 34.0324 1.039059
2005-01-17 08:58:26 51°19.348 2°47.579 7.349747 3.48434 34.028248 0.93793
2005-01-17 08:58:31 51°19.357 2°47.552 7.359708 3.484866 34.028153 0.93793
2005-01-17 08:58:36 51°19.367 2°47.525 7.368877 3.485604 34.030344 0.93793
2005-01-17 08:58:41 51°19.376 2°47.498 7.368877 3.485604 34.030344 0.93793
2005-01-17 08:58:46 51°19.386 2°47.472 7.377887 3.486131 34.028589 0.93793
2005-01-17 08:58:51 51°19.396 2°47.444 7.391268 3.486973 34.030263 0.97164
2005-01-17 08:58:56 51°19.405 2°47.418 7.401065 3.487605 34.029652 0.803093
2005-01-17 08:59:01 51°19.414 2°47.391 7.411019 3.488237 34.026554 0.836802
2005-01-17 08:59:06 51°19.424 2°47.364 7.420234 3.489501 34.031967 0.836802
2005-01-17 08:59:10 51°19.431 2°47.342 7.420234 3.489501 34.031967 0.836802
2005-01-17 08:59:16 51°19.443 2°47.308 7.427868 3.49066 34.034579 0.836802
2005-01-17 08:59:21 51°19.452 2°47.283 7.436975 3.491924 34.03916 0.93793
2005-01-17 08:59:25 51°19.46 2°47.261 7.442976 3.493294 34.044052 0.870512
2005-01-17 08:59:28 51°19.465 2°47.245 7.452713 3.494558 34.049459 0.803093
2005-01-17 08:59:36 51°19.481 2°47.201 7.459238 3.495822 34.053207 0.769383
2005-01-17 08:59:41 51°19.49 2°47.175 7.459238 3.495822 34.053207 0.769383
2005-01-17 08:59:46 51°19.5 2°47.148 7.464448 3.496875 34.055501 0.904221
2005-01-17 08:59:48 51°19.504 2°47.137 7.47013 3.498139 34.062559 0.93793
2005-01-17 08:59:56 51°19.519 2°47.095 7.474391 3.499509 34.069099 0.803093
2005-01-17 09:00:01 51°19.528 2°47.069 7.479863 3.500668 34.075014 0.97164
2005-01-17 09:00:06 51°19.538 2°47.041 7.486017 3.501616 34.077819 0.836802
2005-01-17 09:00:09 51°19.543 2°47.026 7.486017 3.501616 34.077819 0.836802
2005-01-17 09:00:16 51°19.557 2°46.988 7.491119 3.50288 34.085698 0.735674
2005-01-17 09:00:21 51°19.566 2°46.96 7.499219 3.503723 34.089018 0.870512
2005-01-17 09:00:24 51°19.572 2°46.944 7.504898 3.505092 34.099689 0.769383
2005-01-17 09:00:29 51°19.581 2°46.917 7.512049 3.505829 34.102695 0.836802
2005-01-17 09:00:36 51°19.594 2°46.88 7.518516 3.506988 34.109429 0.803093
2005-01-17 09:00:40 51°19.602 2°46.858 7.518516 3.506988 34.109429 0.803093
2005-01-17 09:00:46 51°19.613 2°46.826 7.530765 3.507936 34.113056 0.836802
2005-01-17 09:00:50 51°19.621 2°46.804 7.537545 3.508779 34.115543 0.836802
2005-01-17 09:00:56 51°19.632 2°46.771 7.545429 3.509833 34.121962 0.870512
2005-01-17 09:01:01 51°19.641 2°46.744 7.550736 3.51057 34.122482 0.904221
2005-01-17 09:01:06 51°19.65 2°46.717 7.557305 3.511623 34.126416 0.870512
2005-01-17 09:01:10 51°19.657 2°46.695 7.557305 3.511623 34.126416 0.870512
2005-01-17 09:01:16 51°19.668 2°46.663 7.56403 3.512782 34.129832 0.870512
2005-01-17 09:01:21 51°19.677 2°46.635 7.571857 3.514152 34.137177 0.904221
2005-01-17 09:01:26 51°19.685 2°46.608 7.578739 3.514994 34.13966 0.97164
2005-01-17 09:01:32 51°19.696 2°46.574 7.586775 3.516048 34.145244 1.039059
2005-01-17 09:01:36 51°19.703 2°46.552 7.586775 3.516048 34.145244 1.039059
2005-01-17 09:01:41 51°19.711 2°46.525 7.595072 3.517733 34.155995 0.870512
2005-01-17 09:01:46 51°19.72 2°46.497 7.603999 3.518576 34.159302 0.836802
2005-01-17 09:01:48 51°19.723 2°46.485 7.613082 3.519735 34.164364 0.836802
2005-01-17 09:01:56 51°19.736 2°46.441 7.622374 3.520789 34.169115 0.836802
2005-01-17 09:02:00 51°19.743 2°46.419 7.629302 3.521842 34.173038 0.904221
2005-01-17 09:02:06 51°19.753 2°46.385 7.639064 3.523317 34.179024 1.005349
2005-01-17 09:02:10 51°19.76 2°46.364 7.639064 3.523317 34.179024 1.005349
2005-01-17 09:02:16 51°19.77 2°46.331 7.649506 3.524686 34.187179 0.870512
2005-01-17 09:02:21 51°19.778 2°46.303 7.655225 3.526056 34.193679 1.106477
2005-01-17 09:02:26 51°19.787 2°46.275 7.668497 3.526688 34.192227 0.870512
2005-01-17 09:02:28 51°19.791 2°46.265 7.677676 3.528479 34.202438 0.735674
2005-01-17 09:02:36 51°19.805 2°46.221 7.682973 3.529743 34.206144 0.769383
2005-01-17 09:02:41 51°19.815 2°46.194 7.682973 3.529743 34.206144 0.769383
2005-01-17 09:02:45 51°19.823 2°46.174 7.689004 3.530796 34.210058 0.769383
2005-01-17 09:02:50 51°19.835 2°46.149 7.695139 3.532166 34.216548 0.904221
2005-01-17 09:02:56 51°19.847 2°46.121 7.701588 3.533114 34.216847 0.803093
2005-01-17 09:03:01 51°19.857 2°46.1 7.708508 3.534589 34.224468 0.735674
2005-01-17 09:03:06 51°19.868 2°46.08 7.714799 3.535537 34.226417 0.836802
2005-01-17 09:03:08 51°19.871 2°46.072 7.714799 3.535537 34.226417 0.836802
2005-01-17 09:03:16 51°19.885 2°46.042 7.717944 3.53638 34.229709 0.93793
2005-01-17 09:03:20 51°19.891 2°46.028 7.722032 3.537223 34.233825 0.735674
2005-01-17 09:03:26 51°19.9 2°46.008 7.723395 3.538698 34.24144 0.735674
2005-01-17 09:03:30 51°19.904 2°45.995 7.724915 3.539751 34.24617 0.769383
2005-01-17 09:03:36 51°19.909 2°45.975 7.723709 3.539856 34.243176 0.735674
2005-01-17 09:03:41 51°19.913 2°45.959 7.723709 3.539856 34.243176 0.735674
2005-01-17 09:03:46 51°19.916 2°45.944 7.724076 3.540594 34.246157 0.803093
2005-01-17 09:03:48 51°19.917 2°45.938 7.725544 3.541542 34.253878 0.668255
2005-01-17 09:03:56 51°19.918 2°45.916 7.727587 3.541647 34.255012 0.735674
2005-01-17 09:04:01 51°19.918 2°45.904 7.730994 3.541858 34.256452 0.803093
2005-01-17 09:04:05 51°19.917 2°45.895 7.734033 3.542806 34.264999 0.735674
2005-01-17 09:04:10 51°19.916 2°45.884 7.734033 3.542806 34.264999 0.735674
2005-01-17 09:04:16 51°19.914 2°45.871 7.733719 3.542596 34.264384 0.870512
2005-01-17 09:04:21 51°19.912 2°45.862 7.73309 3.543228 34.26788 0.93793
2005-01-17 09:04:26 51°19.909 2°45.852 7.73461 3.543333 34.269013 0.769383
2005-01-17 09:04:30 51°19.907 2°45.846 7.732042 3.543965 34.270857 0.769383
2005-01-17 09:04:36 51°19.903 2°45.836 7.731308 3.544176 34.271471 0.803093
2005-01-17 09:04:41 51°19.9 2°45.828 7.731308 3.544176 34.271471 0.803093
2005-01-17 09:04:46 51°19.898 2°45.821 7.730051 3.544176 34.270646 0.836802
2005-01-17 09:04:51 51°19.895 2°45.814 7.730051 3.544281 34.271779 0.769383
2005-01-17 09:04:56 51°19.893 2°45.808 7.731466 3.544597 34.275177 0.803093
2005-01-17 09:05:01 51°19.891 2°45.803 7.730679 3.544597 34.275177 0.701965
2005-01-17 09:05:06 51°19.89 2°45.8 7.730679 3.544597 34.275177 0.701965
2005-01-17 09:05:10 51°19.889 2°45.797 7.733719 3.544387 34.272912 0.803093
2005-01-17 09:05:16 51°19.888 2°45.794 7.735815 3.544387 34.273737 0.836802
2005-01-17 09:05:20 51°19.888 2°45.792 7.733824 3.544281 34.270953 0.769383
2005-01-17 09:05:24 51°19.889 2°45.791 7.73178 3.544281 34.270953 0.870512
2005-01-17 09:05:32 51°19.889 2°45.788 7.733824 3.544492 34.271568 0.803093
2005-01-17 09:05:36 51°19.889 2°45.787 7.73157 3.544492 34.271568 0.803093
2005-01-17 09:05:41 51°19.89 2°45.786 7.73157 3.544492 34.271568 0.803093
2005-01-17 09:05:46 51°19.89 2°45.785 7.734295 3.544703 34.272182 0.803093
2005-01-17 09:05:51 51°19.892 2°45.784 7.730679 3.544492 34.270742 0.836802
2005-01-17 09:05:56 51°19.892 2°45.784 7.730103 3.544808 34.273315 0.836802
2005-01-17 09:06:00 51°19.893 2°45.783 7.729002 3.544913 34.274448 0.769383
2005-01-17 09:06:06 51°19.894 2°45.783 7.731675 3.544597 34.270224 0.735674
2005-01-17 09:06:11 51°19.895 2°45.782 7.731675 3.544597 34.270224 0.735674
2005-01-17 09:06:16 51°19.896 2°45.782 7.730784 3.544492 34.269917 0.836802
2005-01-17 09:06:21 51°19.897 2°45.782 7.731204 3.544703 34.273008 0.836802
2005-01-17 09:06:26 51°19.899 2°45.782 7.734033 3.535431 34.173346 0.735674
2005-01-17 09:06:32 51°19.9 2°45.781 7.731518 3.535326 34.172213 0.870512
2005-01-17 09:06:36 51°19.901 2°45.781 7.729527 3.544492 34.271568 0.836802
2005-01-17 09:06:40 51°19.902 2°45.781 7.729527 3.544492 34.271568 0.836802
2005-01-17 09:06:46 51°19.903 2°45.782 7.730679 3.544597 34.273526 0.904221
2005-01-17 09:06:51 51°19.905 2°45.781 7.72916 3.544703 34.273008 0.93793
2005-01-17 09:06:56 51°19.906 2°45.781 7.729264 3.544703 34.272182 0.904221
2005-01-17 09:07:01 51°19.908 2°45.782 7.725648 3.544387 34.269609 0.904221
2005-01-17 09:07:06 51°19.91 2°45.781 7.72591 3.544492 34.271568 0.803093
2005-01-17 09:07:08 51°19.911 2°45.781 7.72591 3.544492 34.271568 0.803093
2005-01-17 09:07:16 51°19.913 2°45.781 7.724915 3.544387 34.270435 0.769383
2005-01-17 09:07:21 51°19.914 2°45.78 7.724338 3.544176 34.26982 0.836802
2005-01-17 09:07:25 51°19.915 2°45.779 7.724181 3.544176 34.271471 0.701965
2005-01-17 09:07:31 51°19.917 2°45.778 7.724128 3.544492 34.275696 0.769383
2005-01-17 09:07:36 51°19.918 2°45.777 7.7246 3.544281 34.274256 0.870512
2005-01-17 09:07:41 51°19.919 2°45.776 7.7246 3.544281 34.274256 0.870512
2005-01-17 09:07:44 51°19.92 2°45.775 7.729002 3.544597 34.275177 0.97164
2005-01-17 09:07:48 51°19.92 2°45.774 7.729631 3.544387 34.270435 0.97164
2005-01-17 09:07:56 51°19.922 2°45.771 7.738697 3.544176 34.26982 0.93793
2005-01-17 09:08:00 51°19.923 2°45.77 7.737177 3.54407 34.267037 0.97164
2005-01-17 09:08:06 51°19.925 2°45.768 7.732933 3.543544 34.260548 0.769383
2005-01-17 09:08:11 51°19.926 2°45.766 7.732933 3.543544 34.260548 0.769383
2005-01-17 09:08:16 51°19.927 2°45.765 7.734086 3.543333 34.255807 0.97164
2005-01-17 09:08:21 51°19.929 2°45.764 7.734295 3.542385 34.242315 0.803093
2005-01-17 09:08:26 51°19.93 2°45.763 7.736601 3.541963 34.235312 0.904221
2005-01-17 09:08:30 51°19.931 2°45.762 7.738383 3.541752 34.233047 1.005349
2005-01-17 09:08:36 51°19.933 2°45.76 7.741631 3.541647 34.230266 0.769383
2005-01-17 09:08:40 51°19.933 2°45.758 7.741631 3.541647 34.230266 0.769383
2005-01-17 09:08:46 51°19.935 2°45.756 7.754624 3.541752 34.232223 0.904221
2005-01-17 09:08:51 51°19.936 2°45.755 7.76091 3.541647 34.230266 0.836802
2005-01-17 09:08:56 51°19.938 2°45.753 7.765205 3.541963 34.232839 0.836802
2005-01-17 09:09:01 51°19.939 2°45.751 7.760387 3.542385 34.234895 1.039059
2005-01-17 09:09:06 51°19.94 2°45.749 7.767091 3.54249 34.231906 0.769383
2005-01-17 09:09:11 51°19.941 2°45.748 7.767091 3.54249 34.231906 0.769383
2005-01-17 09:09:16 51°19.943 2°45.747 7.782226 3.543227 34.230767 0.904221
2005-01-17 09:09:20 51°19.944 2°45.746 7.781755 3.543859 34.232615 0.803093
2005-01-17 09:09:26 51°19.947 2°45.745 7.768348 3.544386 34.236625 0.93793
2005-01-17 09:09:30 51°19.948 2°45.744 7.763739 3.545018 34.241768 0.836802
2005-01-17 09:09:36 51°19.95 2°45.743 7.764891 3.54544 34.23888 0.93793
2005-01-17 09:09:41 51°19.952 2°45.742 7.764891 3.54544 34.23888 0.93793
2005-01-17 09:09:45 51°19.953 2°45.742 7.761382 3.546072 34.239903 0.904221
2005-01-17 09:09:50 51°19.955 2°45.741 7.750905 3.546598 34.24556 0.836802
2005-01-17 09:09:56 51°19.958 2°45.74 7.743989 3.546388 34.249063 0.870512
2005-01-17 09:10:01 51°19.959 2°45.739 7.746347 3.546283 34.251227 0.93793
2005-01-17 09:10:06 51°19.961 2°45.736 7.744985 3.546177 34.251743 0.97164
2005-01-17 09:10:11 51°19.963 2°45.733 7.744985 3.546177 34.251743 0.97164
2005-01-17 09:10:16 51°19.964 2°45.729 7.748442 3.545756 34.250513 0.870512
2005-01-17 09:10:21 51°19.965 2°45.724 7.758606 3.545018 34.249184 0.769383
2005-01-17 09:10:26 51°19.966 2°45.719 7.761958 3.545018 34.25413 0.836802
2005-01-17 09:10:31 51°19.966 2°45.713 7.745666 3.544176 34.246722 1.005349
2005-01-17 09:10:36 51°19.966 2°45.707 7.738383 3.544702 34.252383 0.870512
2005-01-17 09:10:41 51°19.965 2°45.702 7.738383 3.544702 34.252383 0.870512
2005-01-17 09:10:46 51°19.964 2°45.696 7.736025 3.544702 34.249085 0.97164
2005-01-17 09:10:51 51°19.963 2°45.69 7.735343 3.544808 34.246096 0.93793
2005-01-17 09:10:56 51°19.961 2°45.685 7.733038 3.544808 34.24692 0.904221
2005-01-17 09:11:00 51°19.958 2°45.681 7.730679 3.544492 34.250943 0.836802
2005-01-17 09:11:06 51°19.954 2°45.676 7.735081 3.544281 34.251977 1.039059
2005-01-17 09:11:08 51°19.953 2°45.674 7.735081 3.544281 34.251977 1.039059
2005-01-17 09:11:16 51°19.947 2°45.67 7.732671 3.544386 34.258057 0.97164
2005-01-17 09:11:21 51°19.943 2°45.669 7.739169 3.543754 34.252913 1.039059
2005-01-17 09:11:26 51°19.939 2°45.668 7.739169 3.54407 34.25796 0.904221
2005-01-17 09:11:30 51°19.935 2°45.669 7.730994 3.543438 34.25034 1.005349
2005-01-17 09:11:36 51°19.93 2°45.671 7.740426 3.543438 34.25034 1.039059
2005-01-17 09:11:41 51°19.927 2°45.674 7.740426 3.543438 34.25034 1.039059
2005-01-17 09:11:46 51°19.923 2°45.678 7.736915 3.543333 34.247559 0.93793
2005-01-17 09:11:52 51°19.919 2°45.685 7.737544 3.543544 34.248999 1.039059
2005-01-17 09:11:56 51°19.917 2°45.69 7.736129 3.543438 34.247866 0.97164
2005-01-17 09:12:01 51°19.914 2°45.697 7.754991 3.543333 34.245085 0.97164
2005-01-17 09:12:06 51°19.912 2°45.706 7.746452 3.543438 34.244568 1.039059
2005-01-17 09:12:10 51°19.911 2°45.713 7.746452 3.543438 34.244568 1.039059
2005-01-17 09:12:16 51°19.911 2°45.723 7.74729 3.543965 34.250229 0.93793
2005-01-17 09:12:21 51°19.911 2°45.733 7.753839 3.543649 34.246833 0.870512
2005-01-17 09:12:26 51°19.912 2°45.743 7.752319 3.543333 34.239315 1.376153
2005-01-17 09:12:31 51°19.914 2°45.753 7.749019 3.543543 34.238282 0.93793
2005-01-17 09:12:36 51°19.916 2°45.762 7.757086 3.543543 34.236634 0.870512
2005-01-17 09:12:40 51°19.917 2°45.768 7.757086 3.543543 34.236634 0.870512
2005-01-17 09:12:46 51°19.92 2°45.777 7.753262 3.543754 34.236426 0.904221
2005-01-17 09:12:51 51°19.922 2°45.783 7.749176 3.544281 34.241261 0.904221
2005-01-17 09:12:56 51°19.923 2°45.789 7.756615 3.544281 34.240437 1.072768
2005-01-17 09:13:00 51°19.924 2°45.792 7.749333 3.544492 34.241053 0.836802
2005-01-17 09:13:06 51°19.925 2°45.797 7.750119 3.544281 34.237141 0.97164
2005-01-17 09:13:11 51°19.926 2°45.799 7.750119 3.544281 34.237141 0.97164
2005-01-17 09:13:16 51°19.927 2°45.8 7.75211 3.544597 34.240536 0.93793
2005-01-17 09:13:21 51°19.929 2°45.802 7.752215 3.544281 34.235494 1.005349
2005-01-17 09:13:26 51°19.93 2°45.803 7.754834 3.543859 34.22932 0.97164
2005-01-17 09:13:30 51°19.931 2°45.804 7.751376 3.544175 34.234362 0.904221
2005-01-17 09:13:36 51°19.932 2°45.805 7.75211 3.544386 34.237449 0.97164
2005-01-17 09:13:41 51°19.934 2°45.806 7.75211 3.544386 34.237449 0.97164
2005-01-17 09:13:46 51°19.935 2°45.807 7.76751 3.54407 34.23323 0.97164
2005-01-17 09:13:51 51°19.936 2°45.808 7.762168 3.543859 34.230967 0.904221
2005-01-17 09:13:56 51°19.937 2°45.809 7.750433 3.543754 34.229012 0.870512
2005-01-17 09:14:00 51°19.938 2°45.81 7.762534 3.543543 34.228396 0.904221
2005-01-17 09:14:06 51°19.939 2°45.811 7.757401 3.543438 34.226441 1.072768
2005-01-17 09:14:11 51°19.94 2°45.813 7.757401 3.543438 34.226441 1.072768
2005-01-17 09:14:16 51°19.941 2°45.814 7.757401 3.543543 34.225925 1.106477
2005-01-17 09:14:21 51°19.943 2°45.815 7.763477 3.543859 34.227673 0.93793
2005-01-17 09:14:26 51°19.944 2°45.816 7.759444 3.54407 34.232407 1.005349
2005-01-17 09:14:32 51°19.945 2°45.818 7.75871 3.543754 34.228188 0.93793
2005-01-17 09:14:36 51°19.946 2°45.819 7.757767 3.543965 34.231275 0.93793
2005-01-17 09:14:41 51°19.947 2°45.821 7.757767 3.543965 34.231275 0.93793
2005-01-17 09:14:46 51°19.948 2°45.822 7.756353 3.543859 34.22932 0.97164
2005-01-17 09:14:51 51°19.949 2°45.824 7.757872 3.544175 34.231068 0.97164
2005-01-17 09:14:56 51°19.95 2°45.825 7.762168 3.544175 34.231891 1.005349
2005-01-17 09:15:00 51°19.951 2°45.826 7.756563 3.544386 34.234154 1.039059
2005-01-17 09:15:05 51°19.952 2°45.828 7.76002 3.544491 34.235286 0.93793
2005-01-17 09:15:11 51°19.953 2°45.829 7.76002 3.544491 34.235286 0.93793
2005-01-17 09:15:16 51°19.954 2°45.831 7.761434 3.544702 34.237549 0.904221
2005-01-17 09:15:21 51°19.956 2°45.833 7.761382 3.544386 34.234978 1.005349
2005-01-17 09:15:26 51°19.957 2°45.834 7.7695 3.544597 34.236417 0.836802
2005-01-17 09:15:31 51°19.958 2°45.834 7.757715 3.544386 34.232507 1.039059
2005-01-17 09:15:36 51°19.959 2°45.836 7.767458 3.544597 34.233946 0.93793
2005-01-17 09:15:40 51°19.96 2°45.837 7.767458 3.544597 34.233946 0.93793
2005-01-17 09:15:46 51°19.96 2°45.84 7.762953 3.544808 34.236209 1.005349
2005-01-17 09:15:52 51°19.962 2°45.841 7.76751 3.544913 34.23487 1.005349
2005-01-17 09:15:56 51°19.963 2°45.842 7.759077 3.545124 34.237133 1.005349
2005-01-17 09:16:01 51°19.964 2°45.843 7.760648 3.544913 34.234047 0.904221
2005-01-17 09:16:06 51°19.964 2°45.845 7.761801 3.545018 34.235178 0.93793
2005-01-17 09:16:08 51°19.965 2°45.846 7.761801 3.545018 34.235178 0.93793
2005-01-17 09:16:16 51°19.966 2°45.849 7.762953 3.545334 34.239396 1.005349
2005-01-17 09:16:21 51°19.967 2°45.85 7.760806 3.545124 34.233839 0.97164
2005-01-17 09:16:26 51°19.968 2°45.852 7.762953 3.545334 34.236925 1.005349
2005-01-17 09:16:32 51°19.969 2°45.854 7.752843 3.545545 34.240012 0.836802
2005-01-17 09:16:36 51°19.97 2°45.855 7.757505 3.545334 34.238572 0.803093
2005-01-17 09:16:41 51°19.971 2°45.857 7.757505 3.545334 34.238572 0.803093
2005-01-17 09:16:46 51°19.972 2°45.858 7.757505 3.54565 34.240319 0.836802
2005-01-17 09:16:50 51°19.973 2°45.859 7.76222 3.545545 34.240012 0.870512
2005-01-17 09:16:56 51°19.974 2°45.861 7.76091 3.54544 34.240527 0.93793
2005-01-17 09:17:01 51°19.975 2°45.863 7.755882 3.545756 34.244746 0.904221
2005-01-17 09:17:06 51°19.976 2°45.864 7.76002 3.54565 34.245262 0.97164
2005-01-17 09:17:10 51°19.976 2°45.865 7.76002 3.54565 34.245262 0.97164
2005-01-17 09:17:16 51°19.978 2°45.867 7.763791 3.545545 34.242483 0.803093
2005-01-17 09:17:20 51°19.978 2°45.868 7.761434 3.545545 34.241659 0.93793
2005-01-17 09:17:26 51°19.98 2°45.869 7.762901 3.545756 34.246393 0.904221
2005-01-17 09:17:31 51°19.981 2°45.87 7.758291 3.545966 34.248656 0.836802
2005-01-17 09:17:36 51°19.982 2°45.872 7.753577 3.545545 34.24413 0.904221
2005-01-17 09:17:41 51°19.983 2°45.873 7.753577 3.545545 34.24413 0.904221
2005-01-17 09:17:44 51°19.984 2°45.873 7.759601 3.545966 34.247009 0.836802
2005-01-17 09:17:48 51°19.985 2°45.875 7.75672 3.545756 34.245569 0.93793
2005-01-17 09:17:56 51°19.986 2°45.877 7.755934 3.545861 34.247525 0.904221
2005-01-17 09:18:00 51°19.987 2°45.878 7.756772 3.545861 34.249173 1.039059
2005-01-17 09:18:06 51°19.988 2°45.879 7.763582 3.546072 34.250612 0.904221
2005-01-17 09:18:11 51°19.989 2°45.88 7.763582 3.546072 34.250612 0.904221
2005-01-17 09:18:16 51°19.99 2°45.882 7.754258 3.545966 34.251128 0.904221
2005-01-17 09:18:21 51°19.992 2°45.882 7.756563 3.545861 34.249997 0.836802
2005-01-17 09:18:26 51°19.993 2°45.884 7.760596 3.546177 34.254216 0.836802
2005-01-17 09:18:31 51°19.994 2°45.886 7.756929 3.545966 34.250304 0.769383
2005-01-17 09:18:36 51°19.995 2°45.887 7.752686 3.545756 34.248865 0.803093
2005-01-17 09:18:41 51°19.996 2°45.889 7.752686 3.545756 34.248865 0.803093
2005-01-17 09:18:46 51°19.997 2°45.89 7.754624 3.545756 34.249689 0.97164
2005-01-17 09:18:50 51°19.998 2°45.891 7.7508 3.545861 34.251645 0.93793
2005-01-17 09:18:56 51°19.999 2°45.893 7.753053 3.546072 34.25226 0.93793
2005-01-17 09:19:01 51°20.001 2°45.894 7.753996 3.546072 34.253908 0.870512
2005-01-17 09:19:06 51°20.002 2°45.896 7.748966 3.546599 34.258743 0.870512
2005-01-17 09:19:11 51°20.003 2°45.897 7.748966 3.546599 34.258743 0.870512
2005-01-17 09:19:16 51°20.004 2°45.899 7.759287 3.546388 34.257303 1.039059
2005-01-17 09:19:21 51°20.005 2°45.9 7.751533 3.546072 34.255557 0.97164
2005-01-17 09:19:26 51°20.005 2°45.902 7.754886 3.546493 34.257611 0.870512
2005-01-17 09:19:32 51°20.006 2°45.905 7.754258 3.546388 34.257303 0.870512
2005-01-17 09:19:36 51°20.007 2°45.907 7.756144 3.546283 34.25782 0.93793
2005-01-17 09:19:41 51°20.007 2°45.909 7.756144 3.546283 34.25782 0.93793
2005-01-17 09:19:46 51°20.007 2°45.912 7.75431 3.546388 34.258128 0.93793
2005-01-17 09:19:51 51°20.006 2°45.915 7.756615 3.546283 34.25782 1.005349
2005-01-17 09:19:56 51°20.006 2°45.918 7.75651 3.546493 34.260908 0.93793
2005-01-17 09:20:00 51°20.005 2°45.92 7.751114 3.546388 34.258952 0.870512
2005-01-17 09:20:06 51°20.003 2°45.924 7.754205 3.546388 34.258952 1.005349
2005-01-17 09:20:09 51°20.002 2°45.926 7.754205 3.546388 34.258952 1.005349
2005-01-17 09:20:16 51°19.999 2°45.93 7.753524 3.546493 34.258435 0.904221
2005-01-17 09:20:21 51°19.997 2°45.931 7.750905 3.546599 34.259567 0.904221
2005-01-17 09:20:26 51°19.995 2°45.932 7.752424 3.546493 34.257611 0.97164
2005-01-17 09:20:31 51°19.992 2°45.934 7.747761 3.54702 34.264094 0.97164
2005-01-17 09:20:36 51°19.99 2°45.935 7.750014 3.546915 34.262138 0.93793
2005-01-17 09:20:40 51°19.988 2°45.936 7.750014 3.546915 34.262138 0.93793
2005-01-17 09:20:46 51°19.986 2°45.937 7.753891 3.546704 34.259874 0.836802
2005-01-17 09:20:52 51°19.985 2°45.938 7.756353 3.546704 34.261523 0.735674
2005-01-17 09:20:56 51°19.985 2°45.939 7.752319 3.546283 34.258644 0.97164
2005-01-17 09:21:01 51°19.985 2°45.94 7.752424 3.546915 34.26626 1.005349
2005-01-17 09:21:06 51°19.984 2°45.941 7.757139 3.546704 34.262347 0.97164
2005-01-17 09:21:11 51°19.984 2°45.942 7.757139 3.546704 34.262347 0.97164
2005-01-17 09:21:16 51°19.984 2°45.943 7.752896 3.54702 34.264918 0.97164
2005-01-17 09:21:21 51°19.984 2°45.943 7.749962 3.54702 34.264918 0.870512
2005-01-17 09:21:26 51°19.985 2°45.944 7.755672 3.546915 34.262962 0.870512
2005-01-17 09:21:32 51°19.985 2°45.946 7.755882 3.547125 34.26605 0.93793
2005-01-17 09:21:36 51°19.986 2°45.946 7.752686 3.546915 34.262138 0.93793
2005-01-17 09:21:41 51°19.986 2°45.947 7.752686 3.546915 34.262138 0.93793
2005-01-17 09:21:46 51°19.987 2°45.948 7.753262 3.547125 34.266875 0.97164
2005-01-17 09:21:49 51°19.987 2°45.949 7.754886 3.546915 34.262962 0.836802
2005-01-17 09:21:56 51°19.989 2°45.951 7.754467 3.547231 34.265533 0.803093
2005-01-17 09:22:01 51°19.989 2°45.952 7.752529 3.547231 34.268006 0.836802
2005-01-17 09:22:06 51°19.99 2°45.953 7.749228 3.54702 34.265743 0.836802
2005-01-17 09:22:10 51°19.991 2°45.954 7.749228 3.54702 34.265743 0.836802
2005-01-17 09:22:16 51°19.993 2°45.955 7.752843 3.54702 34.264918 0.870512
2005-01-17 09:22:21 51°19.994 2°45.956 7.752057 3.547442 34.267796 0.836802
2005-01-17 09:22:26 51°19.995 2°45.957 7.753157 3.547125 34.265226 0.93793
2005-01-17 09:22:31 51°19.996 2°45.958 7.751848 3.547231 34.267182 0.870512
2005-01-17 09:22:36 51°19.997 2°45.959 7.753577 3.547336 34.268314 0.803093
2005-01-17 09:22:41 51°19.999 2°45.961 7.753577 3.547336 34.268314 0.803093
2005-01-17 09:22:46 51°20 2°45.961 7.751114 3.54702 34.265743 1.039059
2005-01-17 09:22:51 51°20.001 2°45.963 7.752057 3.547231 34.267182 0.870512
2005-01-17 09:22:56 51°20.003 2°45.963 7.752319 3.54702 34.265743 0.904221
2005-01-17 09:23:01 51°20.004 2°45.965 7.752634 3.547125 34.26605 0.836802
2005-01-17 09:23:06 51°20.005 2°45.966 7.750276 3.547336 34.268314 0.836802
2005-01-17 09:23:11 51°20.007 2°45.967 7.750276 3.547336 34.268314 0.836802
2005-01-17 09:23:16 51°20.008 2°45.968 7.752843 3.54702 34.265743 1.039059
2005-01-17 09:23:21 51°20.009 2°45.969 7.752267 3.547231 34.268006 0.870512
2005-01-17 09:23:26 51°20.011 2°45.969 7.751795 3.547442 34.271095 0.870512
2005-01-17 09:23:31 51°20.012 2°45.971 7.756144 3.547442 34.27027 0.836802
2005-01-17 09:23:36 51°20.013 2°45.972 7.753524 3.547125 34.267699 0.836802
2005-01-17 09:23:41 51°20.015 2°45.974 7.753524 3.547125 34.267699 0.836802
2005-01-17 09:23:46 51°20.016 2°45.975 7.748809 3.546915 34.264611 0.97164
2005-01-17 09:23:51 51°20.018 2°45.976 7.752267 3.547442 34.27027 0.769383
2005-01-17 09:23:56 51°20.019 2°45.977 7.750905 3.547231 34.268831 1.039059
2005-01-17 09:24:00 51°20.02 2°45.979 7.749752 3.547125 34.267699 0.870512
2005-01-17 09:24:06 51°20.022 2°45.98 7.752424 3.547125 34.268524 0.97164
2005-01-17 09:24:08 51°20.022 2°45.98 7.752424 3.547125 34.268524 0.97164
2005-01-17 09:24:16 51°20.024 2°45.983 7.751114 3.547231 34.268831 0.904221
2005-01-17 09:24:21 51°20.026 2°45.984 7.750119 3.547125 34.267699 0.93793
2005-01-17 09:24:26 51°20.027 2°45.985 7.750957 3.54702 34.267392 0.803093
2005-01-17 09:24:32 51°20.028 2°45.987 7.750329 3.547231 34.269656 0.97164
2005-01-17 09:24:36 51°20.029 2°45.988 7.7497 3.547125 34.267699 0.904221
2005-01-17 09:24:41 51°20.031 2°45.989 7.7497 3.547125 34.267699 0.904221
2005-01-17 09:24:46 51°20.032 2°45.991 7.752476 3.547125 34.269348 0.904221
2005-01-17 09:24:49 51°20.032 2°45.991 7.755148 3.547231 34.268831 0.93793
2005-01-17 09:24:56 51°20.034 2°45.994 7.753262 3.546915 34.267084 0.97164
2005-01-17 09:25:00 51°20.035 2°45.995 7.749909 3.547126 34.270173 0.803093
2005-01-17 09:25:06 51°20.036 2°45.996 7.750433 3.547231 34.27048 0.870512
2005-01-17 09:25:10 51°20.037 2°45.998 7.750433 3.547231 34.27048 0.870512
2005-01-17 09:25:16 51°20.039 2°45.999 7.750329 3.547442 34.271095 0.836802
2005-01-17 09:25:21 51°20.04 2°46.001 7.751481 3.547231 34.268006 0.836802
2005-01-17 09:25:26 51°20.041 2°46.002 7.749962 3.547547 34.271402 0.93793
2005-01-17 09:25:30 51°20.041 2°46.003 7.750014 3.547125 34.268524 0.836802
2005-01-17 09:25:36 51°20.043 2°46.005 7.74839 3.547336 34.269963 0.836802
2005-01-17 09:25:41 51°20.044 2°46.007 7.74839 3.547336 34.269963 0.836802
2005-01-17 09:25:46 51°20.044 2°46.01 7.747814 3.547336 34.270787 0.93793
2005-01-17 09:25:51 51°20.044 2°46.015 7.749438 3.547336 34.270787 1.005349
2005-01-17 09:25:56 51°20.043 2°46.02 7.749281 3.547547 34.273051 0.97164
2005-01-17 09:26:00 51°20.041 2°46.025 7.750119 3.547442 34.272744 0.803093
2005-01-17 09:26:06 51°20.038 2°46.033 7.751376 3.547336 34.271612 0.93793
2005-01-17 09:26:10 51°20.035 2°46.038 7.751376 3.547336 34.271612 0.93793
2005-01-17 09:26:16 51°20.029 2°46.047 7.753262 3.547442 34.273569 0.803093
2005-01-17 09:26:20 51°20.025 2°46.053 7.753 3.547652 34.273358 0.870512
2005-01-17 09:26:26 51°20.018 2°46.061 7.753419 3.547336 34.270787 0.870512
2005-01-17 09:26:32 51°20.009 2°46.069 7.753472 3.547336 34.269138 0.870512
2005-01-17 09:26:36 51°20.004 2°46.072 7.752215 3.547547 34.269753 1.039059
2005-01-17 09:26:40 51°19.998 2°46.075 7.752215 3.547547 34.269753 1.039059
2005-01-17 09:26:46 51°19.988 2°46.077 7.754048 3.547652 34.271709 1.005349
2005-01-17 09:26:51 51°19.98 2°46.076 7.754781 3.547652 34.27006 0.97164
2005-01-17 09:26:56 51°19.973 2°46.073 7.752686 3.547968 34.273455 0.769383
2005-01-17 09:27:01 51°19.965 2°46.068 7.753 3.547758 34.270367 0.97164
2005-01-17 09:27:05 51°19.959 2°46.064 7.7519 3.548074 34.272938 0.870512
2005-01-17 09:27:09 51°19.953 2°46.059 7.7519 3.548074 34.272938 0.870512
2005-01-17 09:27:16 51°19.942 2°46.047 7.751743 3.547652 34.266762 0.836802
2005-01-17 09:27:21 51°19.935 2°46.039 7.753472 3.547863 34.26985 0.870512
2005-01-17 09:27:26 51°19.926 2°46.029 7.752372 3.547968 34.272631 0.93793
2005-01-17 09:27:32 51°19.916 2°46.016 7.750957 3.547652 34.27006 0.904221
2005-01-17 09:27:36 51°19.908 2°46.005 7.752738 3.547547 34.268928 0.904221
2005-01-17 09:27:41 51°19.898 2°45.991 7.752738 3.547547 34.268928 0.904221
2005-01-17 09:27:46 51°19.889 2°45.975 7.750905 3.547863 34.274797 0.93793
2005-01-17 09:27:49 51°19.882 2°45.966 7.751062 3.547547 34.272226 0.93793
2005-01-17 09:27:56 51°19.866 2°45.943 7.750538 3.547442 34.271095 0.836802
2005-01-17 09:28:00 51°19.856 2°45.93 7.7497 3.547336 34.269138 0.769383
2005-01-17 09:28:06 51°19.841 2°45.91 7.750538 3.547125 34.269348 0.870512
2005-01-17 09:28:10 51°19.83 2°45.896 7.750538 3.547125 34.269348 0.870512
2005-01-17 09:28:16 51°19.813 2°45.876 7.750014 3.546915 34.268734 0.904221
2005-01-17 09:28:21 51°19.8 2°45.858 7.748285 3.547126 34.270173 0.701965
2005-01-17 09:28:26 51°19.786 2°45.841 7.748652 3.54702 34.27069 0.769383
2005-01-17 09:28:31 51°19.771 2°45.823 7.746714 3.54702 34.269866 0.803093
2005-01-17 09:28:36 51°19.757 2°45.807 7.747395 3.54702 34.271515 0.836802
2005-01-17 09:28:40 51°19.746 2°45.792 7.747395 3.54702 34.271515 0.836802
2005-01-17 09:28:46 51°19.73 2°45.769 7.74729 3.546809 34.268426 0.803093
2005-01-17 09:28:50 51°19.719 2°45.753 7.74467 3.546599 34.266987 0.769383
2005-01-17 09:28:56 51°19.704 2°45.728 7.743517 3.546493 34.268329 0.836802
2005-01-17 09:29:01 51°19.692 2°45.708 7.745508 3.546283 34.265241 0.93793
2005-01-17 09:29:06 51°19.678 2°45.687 7.73985 3.546915 34.270383 0.769383
2005-01-17 09:29:11 51°19.664 2°45.668 7.73985 3.546915 34.270383 0.769383
2005-01-17 09:29:16 51°19.651 2°45.65 7.740321 3.54702 34.271515 0.870512
2005-01-17 09:29:21 51°19.637 2°45.632 7.736758 3.546493 34.26668 0.870512
2005-01-17 09:29:26 51°19.623 2°45.612 7.736025 3.546388 34.268022 0.803093
2005-01-17 09:29:30 51°19.612 2°45.597 7.735605 3.546072 34.266275 0.93793
2005-01-17 09:29:36 51°19.595 2°45.575 7.736129 3.545967 34.266793 0.93793
2005-01-17 09:29:41 51°19.582 2°45.557 7.736129 3.545967 34.266793 0.93793
2005-01-17 09:29:46 51°19.567 2°45.538 7.736234 3.545651 34.263396 0.870512
2005-01-17 09:29:51 51°19.554 2°45.519 7.734819 3.545861 34.268135 0.904221
2005-01-17 09:29:56 51°19.539 2°45.501 7.734243 3.545335 34.263299 0.93793
2005-01-17 09:30:01 51°19.526 2°45.482 7.729841 3.545335 34.264949 0.904221
2005-01-17 09:30:06 51°19.512 2°45.464 7.731937 3.54544 34.264431 0.836802
2005-01-17 09:30:11 51°19.497 2°45.445 7.731937 3.54544 34.264431 0.836802
2005-01-17 09:30:16 51°19.484 2°45.426 7.728216 3.545545 34.266388 0.870512
2005-01-17 09:30:21 51°19.469 2°45.407 7.727587 3.545124 34.263509 0.904221
2005-01-17 09:30:26 51°19.456 2°45.389 7.725439 3.545019 34.263202 0.803093
2005-01-17 09:30:31 51°19.442 2°45.37 7.72785 3.544702 34.26063 1.005349
2005-01-17 09:30:36 51°19.428 2°45.352 7.725334 3.544808 34.264237 0.93793
2005-01-17 09:30:40 51°19.417 2°45.336 7.725334 3.544808 34.264237 0.93793
2005-01-17 09:30:46 51°19.401 2°45.315 7.725491 3.545019 34.266502 0.97164
2005-01-17 09:30:50 51°19.389 2°45.3 7.723395 3.544597 34.264447 0.870512
2005-01-17 09:30:56 51°19.373 2°45.277 7.722189 3.544386 34.262182 0.93793
2005-01-17 09:31:01 51°19.359 2°45.258 7.719307 3.544281 34.26105 0.97164
2005-01-17 09:31:05 51°19.348 2°45.243 7.719307 3.544176 34.260742 0.836802
2005-01-17 09:31:11 51°19.332 2°45.22 7.719307 3.544176 34.260742 0.836802
2005-01-17 09:31:16 51°19.318 2°45.203 7.716162 3.544176 34.261567 1.005349
2005-01-17 09:31:21 51°19.304 2°45.183 7.716738 3.54407 34.26291 0.803093
2005-01-17 09:31:26 51°19.29 2°45.164 7.713855 3.544176 34.264868 0.803093
2005-01-17 09:31:31 51°19.276 2°45.146 7.709976 3.543754 34.261988 0.93793
2005-01-17 09:31:36 51°19.262 2°45.126 7.711496 3.543754 34.261988 1.005349
2005-01-17 09:31:41 51°19.248 2°45.108 7.711496 3.543754 34.261988 1.005349
2005-01-17 09:31:46 51°19.234 2°45.088 7.705573 3.543438 34.26024 0.904221
2005-01-17 09:31:51 51°19.221 2°45.07 7.706936 3.543438 34.262716 0.870512
2005-01-17 09:31:56 51°19.207 2°45.05 7.704367 3.543017 34.259835 0.904221
2005-01-17 09:32:01 51°19.194 2°45.031 7.701378 3.54249 34.255822 1.005349
2005-01-17 09:32:06 51°19.18 2°45.013 7.702794 3.542596 34.258605 1.005349
2005-01-17 09:32:12 51°19.164 2°44.989 7.702794 3.542596 34.258605 1.005349
2005-01-17 09:32:16 51°19.152 2°44.974 7.701011 3.542596 34.260256 0.97164
2005-01-17 09:32:21 51°19.139 2°44.954 7.699176 3.542069 34.257893 0.904221
2005-01-17 09:32:26 51°19.125 2°44.936 7.697132 3.542069 34.258718 1.005349
2005-01-17 09:32:31 51°19.111 2°44.916 7.694772 3.541647 34.255837 0.904221
2005-01-17 09:32:36 51°19.098 2°44.897 7.691731 3.541437 34.254396 0.97164
2005-01-17 09:32:40 51°19.086 2°44.881 7.691731 3.541437 34.254396 0.97164
2005-01-17 09:32:46 51°19.071 2°44.858 7.688637 3.541331 34.254914 0.93793
2005-01-17 09:32:50 51°19.059 2°44.842 7.684966 3.541226 34.254607 1.039059
2005-01-17 09:32:56 51°19.043 2°44.819 7.68355 3.54091 34.253684 0.904221
2005-01-17 09:33:00 51°19.032 2°44.804 7.677729 3.540594 34.251935 0.93793
2005-01-17 09:33:06 51°19.015 2°44.78 7.679407 3.540699 34.256371 0.97164
2005-01-17 09:33:09 51°19.007 2°44.768 7.679407 3.540699 34.256371 0.97164
2005-01-17 09:33:16 51°18.988 2°44.742 7.673953 3.539962 34.250914 0.93793
2005-01-17 09:33:20 51°18.978 2°44.727 7.678463 3.53933 34.24659 0.93793
2005-01-17 09:33:26 51°18.961 2°44.704 7.673953 3.539224 34.249586 0.870512
2005-01-17 09:33:31 51°18.947 2°44.684 7.669442 3.539014 34.24897 0.93793
2005-01-17 09:33:36 51°18.933 2°44.664 7.667448 3.538276 34.24186 1.039059
2005-01-17 09:33:41 51°18.92 2°44.645 7.667448 3.538276 34.24186 1.039059
2005-01-17 09:33:46 51°18.906 2°44.625 7.662885 3.53796 34.241762 0.93793
2005-01-17 09:33:50 51°18.895 2°44.609 7.660104 3.538382 34.249601 0.97164
2005-01-17 09:33:56 51°18.879 2°44.586 7.65895 3.538171 34.246507 1.039059
2005-01-17 09:34:01 51°18.865 2°44.567 7.656379 3.537539 34.24466 1.039059
2005-01-17 09:34:06 51°18.852 2°44.547 7.651447 3.536907 34.239508 0.93793
2005-01-17 09:34:08 51°18.846 2°44.539 7.651447 3.536907 34.239508 0.93793
2005-01-17 09:34:16 51°18.825 2°44.508 7.65171 3.536591 34.240236 0.836802
2005-01-17 09:34:21 51°18.811 2°44.488 7.651133 3.536696 34.243023 1.039059
2005-01-17 09:34:26 51°18.799 2°44.469 7.648509 3.535748 34.234467 0.836802
2005-01-17 09:34:30 51°18.79 2°44.455 7.642737 3.535959 34.240041 1.039059
2005-01-17 09:34:36 51°18.776 2°44.435 7.637804 3.535327 34.235713 0.97164
2005-01-17 09:34:41 51°18.765 2°44.419 7.637804 3.535327 34.235713 0.97164